<?xml version="1.0" encoding="UTF-8" standalone="no" ?>
<gpx xmlns="http://www.topografix.com/GPX/1/1" xmlns:xsi="http://www.w3.org/2001/XMLSchema-instance" xsi:schemaLocation="http://www.topografix.com/GPX/1/1 http://www.topografix.com/GPX/1/1/gpx.xsd" version="1.1" creator="VisuGPX - https://www.visugpx.com">
  <metadata>
    <name>Arbir0816</name>
    <desc><![CDATA[avec Erwann, Gauvain et Rudy]]></desc>
  </metadata>
  <trk>
    <name><![CDATA[Tracé actuel: 26 AOU 2016 11:30]]></name>
    <trkseg>
      <trkpt lat="47.54068" lon="-2.90218">
        <ele>-42.16</ele>
        <time>2016-08-26T09:30:07Z</time>
      </trkpt>
      <trkpt lat="47.5406" lon="-2.90255">
        <ele>-26.78</ele>
        <time>2016-08-26T09:30:26Z</time>
      </trkpt>
      <trkpt lat="47.54037" lon="-2.90304">
        <ele>-18.61</ele>
        <time>2016-08-26T09:30:45Z</time>
      </trkpt>
      <trkpt lat="47.54022" lon="-2.90349">
        <ele>-7.07</ele>
        <time>2016-08-26T09:31:02Z</time>
      </trkpt>
      <trkpt lat="47.54001" lon="-2.90403">
        <ele>-5.63</ele>
        <time>2016-08-26T09:31:23Z</time>
      </trkpt>
      <trkpt lat="47.53982" lon="-2.90464">
        <ele>-3.23</ele>
        <time>2016-08-26T09:31:47Z</time>
      </trkpt>
      <trkpt lat="47.53962" lon="-2.90527">
        <ele>-2.75</ele>
        <time>2016-08-26T09:32:11Z</time>
      </trkpt>
      <trkpt lat="47.53947" lon="-2.90566">
        <ele>-1.79</ele>
        <time>2016-08-26T09:32:27Z</time>
      </trkpt>
      <trkpt lat="47.53924" lon="-2.90618">
        <ele>-0.34</ele>
        <time>2016-08-26T09:32:48Z</time>
      </trkpt>
      <trkpt lat="47.539" lon="-2.90674">
        <ele>-0.82</ele>
        <time>2016-08-26T09:33:10Z</time>
      </trkpt>
      <trkpt lat="47.53885" lon="-2.90702">
        <ele>1.1</ele>
        <time>2016-08-26T09:33:22Z</time>
      </trkpt>
      <trkpt lat="47.53854" lon="-2.90765">
        <ele>0.62</ele>
        <time>2016-08-26T09:33:48Z</time>
      </trkpt>
      <trkpt lat="47.53826" lon="-2.90835">
        <ele>0.14</ele>
        <time>2016-08-26T09:34:15Z</time>
      </trkpt>
      <trkpt lat="47.53803" lon="-2.9091">
        <ele>0.14</ele>
        <time>2016-08-26T09:34:42Z</time>
      </trkpt>
      <trkpt lat="47.53786" lon="-2.90982">
        <ele>0.14</ele>
        <time>2016-08-26T09:35:07Z</time>
      </trkpt>
      <trkpt lat="47.53773" lon="-2.91046">
        <ele>-0.34</ele>
        <time>2016-08-26T09:35:29Z</time>
      </trkpt>
      <trkpt lat="47.5376" lon="-2.91101">
        <ele>-0.34</ele>
        <time>2016-08-26T09:35:48Z</time>
      </trkpt>
      <trkpt lat="47.53747" lon="-2.91169">
        <ele>-0.34</ele>
        <time>2016-08-26T09:36:11Z</time>
      </trkpt>
      <trkpt lat="47.53734" lon="-2.91229">
        <ele>-0.34</ele>
        <time>2016-08-26T09:36:32Z</time>
      </trkpt>
      <trkpt lat="47.53721" lon="-2.91294">
        <ele>0.14</ele>
        <time>2016-08-26T09:36:54Z</time>
      </trkpt>
      <trkpt lat="47.53708" lon="-2.91367">
        <ele>0.14</ele>
        <time>2016-08-26T09:37:19Z</time>
      </trkpt>
      <trkpt lat="47.53697" lon="-2.91432">
        <ele>1.1</ele>
        <time>2016-08-26T09:37:41Z</time>
      </trkpt>
      <trkpt lat="47.53677" lon="-2.91495">
        <ele>1.58</ele>
        <time>2016-08-26T09:38:04Z</time>
      </trkpt>
      <trkpt lat="47.53673" lon="-2.91551">
        <ele>1.1</ele>
        <time>2016-08-26T09:38:23Z</time>
      </trkpt>
      <trkpt lat="47.53701" lon="-2.91563">
        <ele>1.58</ele>
        <time>2016-08-26T09:38:40Z</time>
      </trkpt>
      <trkpt lat="47.53718" lon="-2.91559">
        <ele>2.54</ele>
        <time>2016-08-26T09:39:01Z</time>
      </trkpt>
      <trkpt lat="47.53729" lon="-2.91568">
        <ele>2.54</ele>
        <time>2016-08-26T09:39:23Z</time>
      </trkpt>
      <trkpt lat="47.53732" lon="-2.91572">
        <ele>2.54</ele>
        <time>2016-08-26T09:39:28Z</time>
      </trkpt>
      <trkpt lat="47.53759" lon="-2.9158">
        <ele>2.06</ele>
        <time>2016-08-26T09:39:52Z</time>
      </trkpt>
      <trkpt lat="47.53789" lon="-2.91569">
        <ele>2.06</ele>
        <time>2016-08-26T09:40:17Z</time>
      </trkpt>
      <trkpt lat="47.53822" lon="-2.91564">
        <ele>1.1</ele>
        <time>2016-08-26T09:40:40Z</time>
      </trkpt>
      <trkpt lat="47.53858" lon="-2.91567">
        <ele>1.58</ele>
        <time>2016-08-26T09:41:01Z</time>
      </trkpt>
      <trkpt lat="47.53885" lon="-2.91578">
        <ele>1.58</ele>
        <time>2016-08-26T09:41:22Z</time>
      </trkpt>
      <trkpt lat="47.53915" lon="-2.91596">
        <ele>2.06</ele>
        <time>2016-08-26T09:41:45Z</time>
      </trkpt>
      <trkpt lat="47.53948" lon="-2.91613">
        <ele>2.06</ele>
        <time>2016-08-26T09:42:07Z</time>
      </trkpt>
      <trkpt lat="47.53976" lon="-2.91627">
        <ele>2.54</ele>
        <time>2016-08-26T09:42:24Z</time>
      </trkpt>
      <trkpt lat="47.53998" lon="-2.91641">
        <ele>2.06</ele>
        <time>2016-08-26T09:42:38Z</time>
      </trkpt>
      <trkpt lat="47.54023" lon="-2.91658">
        <ele>2.06</ele>
        <time>2016-08-26T09:42:52Z</time>
      </trkpt>
      <trkpt lat="47.54057" lon="-2.91679">
        <ele>1.58</ele>
        <time>2016-08-26T09:43:10Z</time>
      </trkpt>
      <trkpt lat="47.54093" lon="-2.917">
        <ele>1.1</ele>
        <time>2016-08-26T09:43:28Z</time>
      </trkpt>
      <trkpt lat="47.54126" lon="-2.91718">
        <ele>1.1</ele>
        <time>2016-08-26T09:43:45Z</time>
      </trkpt>
      <trkpt lat="47.54168" lon="-2.91746">
        <ele>0.14</ele>
        <time>2016-08-26T09:44:05Z</time>
      </trkpt>
      <trkpt lat="47.54217" lon="-2.91771">
        <ele>1.1</ele>
        <time>2016-08-26T09:44:25Z</time>
      </trkpt>
      <trkpt lat="47.54264" lon="-2.91788">
        <ele>1.58</ele>
        <time>2016-08-26T09:44:41Z</time>
      </trkpt>
      <trkpt lat="47.54304" lon="-2.91808">
        <ele>1.1</ele>
        <time>2016-08-26T09:44:55Z</time>
      </trkpt>
      <trkpt lat="47.54357" lon="-2.91839">
        <ele>3.02</ele>
        <time>2016-08-26T09:45:14Z</time>
      </trkpt>
      <trkpt lat="47.54395" lon="-2.91862">
        <ele>3.02</ele>
        <time>2016-08-26T09:45:29Z</time>
      </trkpt>
      <trkpt lat="47.54424" lon="-2.91885">
        <ele>3.02</ele>
        <time>2016-08-26T09:45:42Z</time>
      </trkpt>
      <trkpt lat="47.54455" lon="-2.9192">
        <ele>2.06</ele>
        <time>2016-08-26T09:46:00Z</time>
      </trkpt>
      <trkpt lat="47.54492" lon="-2.91957">
        <ele>1.1</ele>
        <time>2016-08-26T09:46:16Z</time>
      </trkpt>
      <trkpt lat="47.54532" lon="-2.91992">
        <ele>1.58</ele>
        <time>2016-08-26T09:46:35Z</time>
      </trkpt>
      <trkpt lat="47.54577" lon="-2.9203">
        <ele>1.1</ele>
        <time>2016-08-26T09:46:54Z</time>
      </trkpt>
      <trkpt lat="47.54617" lon="-2.92048">
        <ele>3.02</ele>
        <time>2016-08-26T09:47:12Z</time>
      </trkpt>
      <trkpt lat="47.54651" lon="-2.92069">
        <ele>3.02</ele>
        <time>2016-08-26T09:47:28Z</time>
      </trkpt>
      <trkpt lat="47.54703" lon="-2.92091">
        <ele>2.06</ele>
        <time>2016-08-26T09:47:50Z</time>
      </trkpt>
      <trkpt lat="47.54754" lon="-2.92104">
        <ele>2.54</ele>
        <time>2016-08-26T09:48:11Z</time>
      </trkpt>
      <trkpt lat="47.54804" lon="-2.92129">
        <ele>1.58</ele>
        <time>2016-08-26T09:48:31Z</time>
      </trkpt>
      <trkpt lat="47.54858" lon="-2.92149">
        <ele>2.54</ele>
        <time>2016-08-26T09:48:52Z</time>
      </trkpt>
      <trkpt lat="47.54906" lon="-2.92164">
        <ele>3.5</ele>
        <time>2016-08-26T09:49:12Z</time>
      </trkpt>
      <trkpt lat="47.54959" lon="-2.92176">
        <ele>3.02</ele>
        <time>2016-08-26T09:49:32Z</time>
      </trkpt>
      <trkpt lat="47.55019" lon="-2.92185">
        <ele>3.02</ele>
        <time>2016-08-26T09:49:52Z</time>
      </trkpt>
      <trkpt lat="47.55067" lon="-2.9219">
        <ele>2.54</ele>
        <time>2016-08-26T09:50:09Z</time>
      </trkpt>
      <trkpt lat="47.55128" lon="-2.92194">
        <ele>2.06</ele>
        <time>2016-08-26T09:50:29Z</time>
      </trkpt>
      <trkpt lat="47.55195" lon="-2.92191">
        <ele>2.54</ele>
        <time>2016-08-26T09:50:49Z</time>
      </trkpt>
      <trkpt lat="47.55255" lon="-2.9219">
        <ele>3.02</ele>
        <time>2016-08-26T09:51:09Z</time>
      </trkpt>
      <trkpt lat="47.55313" lon="-2.92184">
        <ele>2.54</ele>
        <time>2016-08-26T09:51:27Z</time>
      </trkpt>
      <trkpt lat="47.55375" lon="-2.92167">
        <ele>2.06</ele>
        <time>2016-08-26T09:51:47Z</time>
      </trkpt>
      <trkpt lat="47.55429" lon="-2.92149">
        <ele>2.54</ele>
        <time>2016-08-26T09:52:05Z</time>
      </trkpt>
      <trkpt lat="47.55493" lon="-2.92131">
        <ele>2.54</ele>
        <time>2016-08-26T09:52:27Z</time>
      </trkpt>
      <trkpt lat="47.55552" lon="-2.92112">
        <ele>2.54</ele>
        <time>2016-08-26T09:52:49Z</time>
      </trkpt>
      <trkpt lat="47.55607" lon="-2.92104">
        <ele>3.02</ele>
        <time>2016-08-26T09:53:09Z</time>
      </trkpt>
      <trkpt lat="47.5568" lon="-2.92091">
        <ele>2.54</ele>
        <time>2016-08-26T09:53:34Z</time>
      </trkpt>
      <trkpt lat="47.55745" lon="-2.92079">
        <ele>2.06</ele>
        <time>2016-08-26T09:53:58Z</time>
      </trkpt>
      <trkpt lat="47.55807" lon="-2.92093">
        <ele>2.06</ele>
        <time>2016-08-26T09:54:20Z</time>
      </trkpt>
      <trkpt lat="47.5586" lon="-2.92113">
        <ele>1.58</ele>
        <time>2016-08-26T09:54:41Z</time>
      </trkpt>
      <trkpt lat="47.55907" lon="-2.92139">
        <ele>1.1</ele>
        <time>2016-08-26T09:55:00Z</time>
      </trkpt>
      <trkpt lat="47.5596" lon="-2.92162">
        <ele>0.14</ele>
        <time>2016-08-26T09:55:19Z</time>
      </trkpt>
      <trkpt lat="47.56012" lon="-2.92181">
        <ele>0.62</ele>
        <time>2016-08-26T09:55:38Z</time>
      </trkpt>
      <trkpt lat="47.56064" lon="-2.92197">
        <ele>1.1</ele>
        <time>2016-08-26T09:55:57Z</time>
      </trkpt>
      <trkpt lat="47.56111" lon="-2.92217">
        <ele>1.1</ele>
        <time>2016-08-26T09:56:16Z</time>
      </trkpt>
      <trkpt lat="47.56156" lon="-2.92246">
        <ele>1.1</ele>
        <time>2016-08-26T09:56:37Z</time>
      </trkpt>
      <trkpt lat="47.56209" lon="-2.92282">
        <ele>1.58</ele>
        <time>2016-08-26T09:57:01Z</time>
      </trkpt>
      <trkpt lat="47.56256" lon="-2.92316">
        <ele>0.62</ele>
        <time>2016-08-26T09:57:24Z</time>
      </trkpt>
      <trkpt lat="47.56306" lon="-2.92347">
        <ele>1.1</ele>
        <time>2016-08-26T09:57:47Z</time>
      </trkpt>
      <trkpt lat="47.56351" lon="-2.92375">
        <ele>0.62</ele>
        <time>2016-08-26T09:58:10Z</time>
      </trkpt>
      <trkpt lat="47.56387" lon="-2.92402">
        <ele>1.58</ele>
        <time>2016-08-26T09:58:28Z</time>
      </trkpt>
      <trkpt lat="47.56438" lon="-2.92435">
        <ele>1.1</ele>
        <time>2016-08-26T09:58:51Z</time>
      </trkpt>
      <trkpt lat="47.56475" lon="-2.92462">
        <ele>0.62</ele>
        <time>2016-08-26T09:59:10Z</time>
      </trkpt>
      <trkpt lat="47.56509" lon="-2.9249">
        <ele>0.62</ele>
        <time>2016-08-26T09:59:28Z</time>
      </trkpt>
      <trkpt lat="47.56541" lon="-2.9252">
        <ele>0.62</ele>
        <time>2016-08-26T09:59:45Z</time>
      </trkpt>
      <trkpt lat="47.56575" lon="-2.9255">
        <ele>0.14</ele>
        <time>2016-08-26T10:00:02Z</time>
      </trkpt>
      <trkpt lat="47.56617" lon="-2.92582">
        <ele>0.14</ele>
        <time>2016-08-26T10:00:22Z</time>
      </trkpt>
      <trkpt lat="47.56656" lon="-2.92608">
        <ele>1.1</ele>
        <time>2016-08-26T10:00:41Z</time>
      </trkpt>
      <trkpt lat="47.56708" lon="-2.92632">
        <ele>2.54</ele>
        <time>2016-08-26T10:01:06Z</time>
      </trkpt>
      <trkpt lat="47.56754" lon="-2.92662">
        <ele>2.54</ele>
        <time>2016-08-26T10:01:31Z</time>
      </trkpt>
      <trkpt lat="47.56798" lon="-2.92684">
        <ele>2.54</ele>
        <time>2016-08-26T10:01:54Z</time>
      </trkpt>
      <trkpt lat="47.56839" lon="-2.92707">
        <ele>2.06</ele>
        <time>2016-08-26T10:02:18Z</time>
      </trkpt>
      <trkpt lat="47.56886" lon="-2.92732">
        <ele>3.02</ele>
        <time>2016-08-26T10:02:45Z</time>
      </trkpt>
      <trkpt lat="47.56922" lon="-2.92758">
        <ele>2.54</ele>
        <time>2016-08-26T10:03:08Z</time>
      </trkpt>
      <trkpt lat="47.5696" lon="-2.92784">
        <ele>2.06</ele>
        <time>2016-08-26T10:03:29Z</time>
      </trkpt>
      <trkpt lat="47.57" lon="-2.92813">
        <ele>2.54</ele>
        <time>2016-08-26T10:03:50Z</time>
      </trkpt>
      <trkpt lat="47.57032" lon="-2.92835">
        <ele>2.54</ele>
        <time>2016-08-26T10:04:07Z</time>
      </trkpt>
      <trkpt lat="47.5708" lon="-2.92864">
        <ele>2.54</ele>
        <time>2016-08-26T10:04:30Z</time>
      </trkpt>
      <trkpt lat="47.57132" lon="-2.92894">
        <ele>2.54</ele>
        <time>2016-08-26T10:04:53Z</time>
      </trkpt>
      <trkpt lat="47.5718" lon="-2.9293">
        <ele>2.54</ele>
        <time>2016-08-26T10:05:15Z</time>
      </trkpt>
      <trkpt lat="47.57223" lon="-2.92956">
        <ele>1.1</ele>
        <time>2016-08-26T10:05:35Z</time>
      </trkpt>
      <trkpt lat="47.57272" lon="-2.92985">
        <ele>1.58</ele>
        <time>2016-08-26T10:05:59Z</time>
      </trkpt>
      <trkpt lat="47.57311" lon="-2.93006">
        <ele>1.58</ele>
        <time>2016-08-26T10:06:17Z</time>
      </trkpt>
      <trkpt lat="47.57359" lon="-2.93035">
        <ele>3.02</ele>
        <time>2016-08-26T10:06:40Z</time>
      </trkpt>
      <trkpt lat="47.57418" lon="-2.93071">
        <ele>2.54</ele>
        <time>2016-08-26T10:07:07Z</time>
      </trkpt>
      <trkpt lat="47.57472" lon="-2.93096">
        <ele>2.06</ele>
        <time>2016-08-26T10:07:30Z</time>
      </trkpt>
      <trkpt lat="47.57526" lon="-2.93128">
        <ele>2.06</ele>
        <time>2016-08-26T10:07:56Z</time>
      </trkpt>
      <trkpt lat="47.5757" lon="-2.93154">
        <ele>2.54</ele>
        <time>2016-08-26T10:08:18Z</time>
      </trkpt>
      <trkpt lat="47.57608" lon="-2.93179">
        <ele>2.54</ele>
        <time>2016-08-26T10:08:42Z</time>
      </trkpt>
      <trkpt lat="47.57634" lon="-2.93211">
        <ele>3.5</ele>
        <time>2016-08-26T10:09:10Z</time>
      </trkpt>
      <trkpt lat="47.57655" lon="-2.93251">
        <ele>3.98</ele>
        <time>2016-08-26T10:09:35Z</time>
      </trkpt>
      <trkpt lat="47.57675" lon="-2.9328">
        <ele>3.02</ele>
        <time>2016-08-26T10:09:56Z</time>
      </trkpt>
      <trkpt lat="47.57711" lon="-2.93318">
        <ele>2.54</ele>
        <time>2016-08-26T10:10:26Z</time>
      </trkpt>
      <trkpt lat="47.57744" lon="-2.93342">
        <ele>2.54</ele>
        <time>2016-08-26T10:10:49Z</time>
      </trkpt>
      <trkpt lat="47.57787" lon="-2.9337">
        <ele>2.06</ele>
        <time>2016-08-26T10:11:16Z</time>
      </trkpt>
      <trkpt lat="47.57827" lon="-2.93392">
        <ele>3.02</ele>
        <time>2016-08-26T10:11:47Z</time>
      </trkpt>
      <trkpt lat="47.5786" lon="-2.93422">
        <ele>2.54</ele>
        <time>2016-08-26T10:12:11Z</time>
      </trkpt>
      <trkpt lat="47.57903" lon="-2.93445">
        <ele>3.5</ele>
        <time>2016-08-26T10:12:38Z</time>
      </trkpt>
      <trkpt lat="47.57928" lon="-2.93478">
        <ele>2.54</ele>
        <time>2016-08-26T10:13:00Z</time>
      </trkpt>
      <trkpt lat="47.57958" lon="-2.93509">
        <ele>2.06</ele>
        <time>2016-08-26T10:13:18Z</time>
      </trkpt>
      <trkpt lat="47.57969" lon="-2.93513">
        <ele>2.54</ele>
        <time>2016-08-26T10:13:25Z</time>
      </trkpt>
      <trkpt lat="47.57978" lon="-2.93483">
        <ele>3.02</ele>
        <time>2016-08-26T10:13:42Z</time>
      </trkpt>
      <trkpt lat="47.5799" lon="-2.93425">
        <ele>3.02</ele>
        <time>2016-08-26T10:14:08Z</time>
      </trkpt>
      <trkpt lat="47.5801" lon="-2.93366">
        <ele>3.5</ele>
        <time>2016-08-26T10:14:33Z</time>
      </trkpt>
      <trkpt lat="47.58034" lon="-2.93318">
        <ele>3.98</ele>
        <time>2016-08-26T10:14:55Z</time>
      </trkpt>
      <trkpt lat="47.58062" lon="-2.93261">
        <ele>3.5</ele>
        <time>2016-08-26T10:15:21Z</time>
      </trkpt>
      <trkpt lat="47.58083" lon="-2.93221">
        <ele>3.5</ele>
        <time>2016-08-26T10:15:44Z</time>
      </trkpt>
      <trkpt lat="47.58098" lon="-2.932">
        <ele>3.5</ele>
        <time>2016-08-26T10:16:05Z</time>
      </trkpt>
      <trkpt lat="47.58115" lon="-2.9324">
        <ele>3.02</ele>
        <time>2016-08-26T10:16:26Z</time>
      </trkpt>
      <trkpt lat="47.58144" lon="-2.9329">
        <ele>3.5</ele>
        <time>2016-08-26T10:16:50Z</time>
      </trkpt>
      <trkpt lat="47.58174" lon="-2.93339">
        <ele>3.5</ele>
        <time>2016-08-26T10:17:15Z</time>
      </trkpt>
      <trkpt lat="47.58207" lon="-2.9339">
        <ele>3.98</ele>
        <time>2016-08-26T10:17:41Z</time>
      </trkpt>
      <trkpt lat="47.58233" lon="-2.93435">
        <ele>4.46</ele>
        <time>2016-08-26T10:18:08Z</time>
      </trkpt>
      <trkpt lat="47.58266" lon="-2.93486">
        <ele>4.94</ele>
        <time>2016-08-26T10:18:35Z</time>
      </trkpt>
      <trkpt lat="47.58306" lon="-2.93545">
        <ele>4.94</ele>
        <time>2016-08-26T10:19:00Z</time>
      </trkpt>
      <trkpt lat="47.58352" lon="-2.93603">
        <ele>3.5</ele>
        <time>2016-08-26T10:19:27Z</time>
      </trkpt>
      <trkpt lat="47.5839" lon="-2.9365">
        <ele>4.46</ele>
        <time>2016-08-26T10:19:51Z</time>
      </trkpt>
      <trkpt lat="47.58424" lon="-2.93698">
        <ele>5.91</ele>
        <time>2016-08-26T10:20:14Z</time>
      </trkpt>
      <trkpt lat="47.58453" lon="-2.93754">
        <ele>6.39</ele>
        <time>2016-08-26T10:20:39Z</time>
      </trkpt>
      <trkpt lat="47.58474" lon="-2.93808">
        <ele>5.91</ele>
        <time>2016-08-26T10:21:05Z</time>
      </trkpt>
      <trkpt lat="47.585" lon="-2.93846">
        <ele>4.94</ele>
        <time>2016-08-26T10:21:29Z</time>
      </trkpt>
      <trkpt lat="47.58531" lon="-2.93888">
        <ele>4.46</ele>
        <time>2016-08-26T10:22:00Z</time>
      </trkpt>
      <trkpt lat="47.58551" lon="-2.93917">
        <ele>4.46</ele>
        <time>2016-08-26T10:22:28Z</time>
      </trkpt>
      <trkpt lat="47.58564" lon="-2.93943">
        <ele>4.46</ele>
        <time>2016-08-26T10:22:54Z</time>
      </trkpt>
      <trkpt lat="47.58582" lon="-2.93973">
        <ele>5.42</ele>
        <time>2016-08-26T10:23:19Z</time>
      </trkpt>
      <trkpt lat="47.58595" lon="-2.93991">
        <ele>4.94</ele>
        <time>2016-08-26T10:23:39Z</time>
      </trkpt>
      <trkpt lat="47.586" lon="-2.93998">
        <ele>4.46</ele>
        <time>2016-08-26T10:23:46Z</time>
      </trkpt>
      <trkpt lat="47.58624" lon="-2.94034">
        <ele>3.5</ele>
        <time>2016-08-26T10:24:12Z</time>
      </trkpt>
      <trkpt lat="47.58654" lon="-2.94075">
        <ele>3.02</ele>
        <time>2016-08-26T10:24:40Z</time>
      </trkpt>
      <trkpt lat="47.58692" lon="-2.94131">
        <ele>2.54</ele>
        <time>2016-08-26T10:25:10Z</time>
      </trkpt>
      <trkpt lat="47.58732" lon="-2.9419">
        <ele>3.02</ele>
        <time>2016-08-26T10:25:36Z</time>
      </trkpt>
      <trkpt lat="47.5877" lon="-2.94244">
        <ele>2.54</ele>
        <time>2016-08-26T10:26:03Z</time>
      </trkpt>
      <trkpt lat="47.58807" lon="-2.94293">
        <ele>2.54</ele>
        <time>2016-08-26T10:26:24Z</time>
      </trkpt>
      <trkpt lat="47.58853" lon="-2.94361">
        <ele>2.54</ele>
        <time>2016-08-26T10:26:51Z</time>
      </trkpt>
      <trkpt lat="47.58891" lon="-2.94422">
        <ele>3.02</ele>
        <time>2016-08-26T10:27:14Z</time>
      </trkpt>
      <trkpt lat="47.58937" lon="-2.9447">
        <ele>3.02</ele>
        <time>2016-08-26T10:27:40Z</time>
      </trkpt>
      <trkpt lat="47.58976" lon="-2.94501">
        <ele>3.02</ele>
        <time>2016-08-26T10:28:01Z</time>
      </trkpt>
      <trkpt lat="47.59005" lon="-2.94529">
        <ele>2.54</ele>
        <time>2016-08-26T10:28:22Z</time>
      </trkpt>
      <trkpt lat="47.59036" lon="-2.94559">
        <ele>2.54</ele>
        <time>2016-08-26T10:28:46Z</time>
      </trkpt>
      <trkpt lat="47.59063" lon="-2.94582">
        <ele>2.06</ele>
        <time>2016-08-26T10:29:08Z</time>
      </trkpt>
      <trkpt lat="47.59091" lon="-2.94617">
        <ele>3.02</ele>
        <time>2016-08-26T10:29:33Z</time>
      </trkpt>
      <trkpt lat="47.5912" lon="-2.94648">
        <ele>2.54</ele>
        <time>2016-08-26T10:29:56Z</time>
      </trkpt>
      <trkpt lat="47.59144" lon="-2.94691">
        <ele>3.98</ele>
        <time>2016-08-26T10:30:23Z</time>
      </trkpt>
      <trkpt lat="47.59176" lon="-2.94733">
        <ele>3.02</ele>
        <time>2016-08-26T10:30:52Z</time>
      </trkpt>
      <trkpt lat="47.59209" lon="-2.94772">
        <ele>2.06</ele>
        <time>2016-08-26T10:31:18Z</time>
      </trkpt>
      <trkpt lat="47.59247" lon="-2.94809">
        <ele>3.02</ele>
        <time>2016-08-26T10:31:44Z</time>
      </trkpt>
      <trkpt lat="47.59254" lon="-2.94774">
        <ele>3.02</ele>
        <time>2016-08-26T10:32:02Z</time>
      </trkpt>
      <trkpt lat="47.59268" lon="-2.94698">
        <ele>3.5</ele>
        <time>2016-08-26T10:32:30Z</time>
      </trkpt>
      <trkpt lat="47.59286" lon="-2.94649">
        <ele>3.02</ele>
        <time>2016-08-26T10:32:49Z</time>
      </trkpt>
      <trkpt lat="47.5931" lon="-2.94597">
        <ele>3.02</ele>
        <time>2016-08-26T10:33:12Z</time>
      </trkpt>
      <trkpt lat="47.59334" lon="-2.94545">
        <ele>3.5</ele>
        <time>2016-08-26T10:33:35Z</time>
      </trkpt>
      <trkpt lat="47.59359" lon="-2.94496">
        <ele>3.02</ele>
        <time>2016-08-26T10:33:59Z</time>
      </trkpt>
      <trkpt lat="47.59386" lon="-2.94449">
        <ele>3.02</ele>
        <time>2016-08-26T10:34:21Z</time>
      </trkpt>
      <trkpt lat="47.59414" lon="-2.94406">
        <ele>3.02</ele>
        <time>2016-08-26T10:34:46Z</time>
      </trkpt>
      <trkpt lat="47.59437" lon="-2.94352">
        <ele>3.5</ele>
        <time>2016-08-26T10:35:11Z</time>
      </trkpt>
      <trkpt lat="47.59443" lon="-2.94317">
        <ele>3.98</ele>
        <time>2016-08-26T10:35:30Z</time>
      </trkpt>
      <trkpt lat="47.59461" lon="-2.94285">
        <ele>3.98</ele>
        <time>2016-08-26T10:35:46Z</time>
      </trkpt>
      <trkpt lat="47.59469" lon="-2.94314">
        <ele>3.98</ele>
        <time>2016-08-26T10:36:00Z</time>
      </trkpt>
      <trkpt lat="47.59481" lon="-2.94375">
        <ele>3.5</ele>
        <time>2016-08-26T10:36:22Z</time>
      </trkpt>
      <trkpt lat="47.59488" lon="-2.94441">
        <ele>3.98</ele>
        <time>2016-08-26T10:36:49Z</time>
      </trkpt>
      <trkpt lat="47.59496" lon="-2.94496">
        <ele>3.5</ele>
        <time>2016-08-26T10:37:13Z</time>
      </trkpt>
      <trkpt lat="47.59506" lon="-2.94549">
        <ele>3.02</ele>
        <time>2016-08-26T10:37:40Z</time>
      </trkpt>
      <trkpt lat="47.59534" lon="-2.9461">
        <ele>3.02</ele>
        <time>2016-08-26T10:38:07Z</time>
      </trkpt>
      <trkpt lat="47.59572" lon="-2.94662">
        <ele>4.46</ele>
        <time>2016-08-26T10:38:34Z</time>
      </trkpt>
      <trkpt lat="47.59602" lon="-2.94688">
        <ele>3.98</ele>
        <time>2016-08-26T10:38:51Z</time>
      </trkpt>
      <trkpt lat="47.59642" lon="-2.94724">
        <ele>3.02</ele>
        <time>2016-08-26T10:39:15Z</time>
      </trkpt>
      <trkpt lat="47.5968" lon="-2.94749">
        <ele>2.54</ele>
        <time>2016-08-26T10:39:39Z</time>
      </trkpt>
      <trkpt lat="47.59716" lon="-2.94769">
        <ele>2.54</ele>
        <time>2016-08-26T10:40:03Z</time>
      </trkpt>
      <trkpt lat="47.59743" lon="-2.948">
        <ele>3.02</ele>
        <time>2016-08-26T10:40:28Z</time>
      </trkpt>
      <trkpt lat="47.59768" lon="-2.94838">
        <ele>3.5</ele>
        <time>2016-08-26T10:40:54Z</time>
      </trkpt>
      <trkpt lat="47.59796" lon="-2.94896">
        <ele>3.5</ele>
        <time>2016-08-26T10:41:25Z</time>
      </trkpt>
      <trkpt lat="47.59836" lon="-2.94983">
        <ele>2.06</ele>
        <time>2016-08-26T10:41:58Z</time>
      </trkpt>
      <trkpt lat="47.59861" lon="-2.95044">
        <ele>2.06</ele>
        <time>2016-08-26T10:42:19Z</time>
      </trkpt>
      <trkpt lat="47.59887" lon="-2.95095">
        <ele>2.54</ele>
        <time>2016-08-26T10:42:37Z</time>
      </trkpt>
      <trkpt lat="47.59907" lon="-2.95139">
        <ele>2.54</ele>
        <time>2016-08-26T10:42:54Z</time>
      </trkpt>
      <trkpt lat="47.59936" lon="-2.952">
        <ele>3.02</ele>
        <time>2016-08-26T10:43:23Z</time>
      </trkpt>
      <trkpt lat="47.59961" lon="-2.95265">
        <ele>2.54</ele>
        <time>2016-08-26T10:43:52Z</time>
      </trkpt>
      <trkpt lat="47.60001" lon="-2.95333">
        <ele>3.5</ele>
        <time>2016-08-26T10:44:26Z</time>
      </trkpt>
      <trkpt lat="47.60029" lon="-2.95377">
        <ele>3.02</ele>
        <time>2016-08-26T10:44:53Z</time>
      </trkpt>
      <trkpt lat="47.60058" lon="-2.95429">
        <ele>3.5</ele>
        <time>2016-08-26T10:45:18Z</time>
      </trkpt>
      <trkpt lat="47.60088" lon="-2.95464">
        <ele>3.02</ele>
        <time>2016-08-26T10:45:36Z</time>
      </trkpt>
      <trkpt lat="47.60128" lon="-2.95494">
        <ele>2.06</ele>
        <time>2016-08-26T10:45:56Z</time>
      </trkpt>
      <trkpt lat="47.60167" lon="-2.95518">
        <ele>2.06</ele>
        <time>2016-08-26T10:46:18Z</time>
      </trkpt>
      <trkpt lat="47.60201" lon="-2.95542">
        <ele>2.54</ele>
        <time>2016-08-26T10:46:41Z</time>
      </trkpt>
      <trkpt lat="47.60216" lon="-2.95542">
        <ele>2.54</ele>
        <time>2016-08-26T10:46:55Z</time>
      </trkpt>
      <trkpt lat="47.60217" lon="-2.95497">
        <ele>3.5</ele>
        <time>2016-08-26T10:47:17Z</time>
      </trkpt>
      <trkpt lat="47.60236" lon="-2.95447">
        <ele>3.02</ele>
        <time>2016-08-26T10:47:39Z</time>
      </trkpt>
      <trkpt lat="47.60253" lon="-2.95416">
        <ele>3.98</ele>
        <time>2016-08-26T10:48:01Z</time>
      </trkpt>
      <trkpt lat="47.60254" lon="-2.95372">
        <ele>4.46</ele>
        <time>2016-08-26T10:48:27Z</time>
      </trkpt>
      <trkpt lat="47.60258" lon="-2.95349">
        <ele>4.94</ele>
        <time>2016-08-26T10:48:37Z</time>
      </trkpt>
      <trkpt lat="47.60266" lon="-2.95354">
        <ele>4.46</ele>
        <time>2016-08-26T10:48:44Z</time>
      </trkpt>
      <trkpt lat="47.6031" lon="-2.9539">
        <ele>3.98</ele>
        <time>2016-08-26T10:49:08Z</time>
      </trkpt>
      <trkpt lat="47.60345" lon="-2.95422">
        <ele>3.5</ele>
        <time>2016-08-26T10:49:30Z</time>
      </trkpt>
      <trkpt lat="47.6038" lon="-2.95468">
        <ele>3.98</ele>
        <time>2016-08-26T10:49:57Z</time>
      </trkpt>
      <trkpt lat="47.60409" lon="-2.95526">
        <ele>3.5</ele>
        <time>2016-08-26T10:50:21Z</time>
      </trkpt>
      <trkpt lat="47.60445" lon="-2.95612">
        <ele>3.5</ele>
        <time>2016-08-26T10:50:55Z</time>
      </trkpt>
      <trkpt lat="47.60482" lon="-2.95678">
        <ele>2.54</ele>
        <time>2016-08-26T10:51:24Z</time>
      </trkpt>
      <trkpt lat="47.60527" lon="-2.95718">
        <ele>2.54</ele>
        <time>2016-08-26T10:51:50Z</time>
      </trkpt>
      <trkpt lat="47.60562" lon="-2.95745">
        <ele>3.5</ele>
        <time>2016-08-26T10:52:15Z</time>
      </trkpt>
      <trkpt lat="47.60565" lon="-2.95743">
        <ele>3.5</ele>
        <time>2016-08-26T10:52:18Z</time>
      </trkpt>
      <trkpt lat="47.60567" lon="-2.95734">
        <ele>3.5</ele>
        <time>2016-08-26T10:52:23Z</time>
      </trkpt>
      <trkpt lat="47.60586" lon="-2.95673">
        <ele>3.5</ele>
        <time>2016-08-26T10:52:49Z</time>
      </trkpt>
      <trkpt lat="47.60613" lon="-2.95624">
        <ele>3.02</ele>
        <time>2016-08-26T10:53:15Z</time>
      </trkpt>
      <trkpt lat="47.6064" lon="-2.95584">
        <ele>2.54</ele>
        <time>2016-08-26T10:53:40Z</time>
      </trkpt>
      <trkpt lat="47.6067" lon="-2.95547">
        <ele>0.62</ele>
        <time>2016-08-26T10:54:05Z</time>
      </trkpt>
      <trkpt lat="47.60693" lon="-2.95506">
        <ele>1.1</ele>
        <time>2016-08-26T10:54:30Z</time>
      </trkpt>
      <trkpt lat="47.60722" lon="-2.95462">
        <ele>2.54</ele>
        <time>2016-08-26T10:54:56Z</time>
      </trkpt>
      <trkpt lat="47.60739" lon="-2.95428">
        <ele>3.98</ele>
        <time>2016-08-26T10:55:20Z</time>
      </trkpt>
      <trkpt lat="47.60757" lon="-2.95393">
        <ele>4.46</ele>
        <time>2016-08-26T10:55:38Z</time>
      </trkpt>
      <trkpt lat="47.60763" lon="-2.95394">
        <ele>4.46</ele>
        <time>2016-08-26T10:55:43Z</time>
      </trkpt>
      <trkpt lat="47.60777" lon="-2.95437">
        <ele>3.98</ele>
        <time>2016-08-26T10:56:05Z</time>
      </trkpt>
      <trkpt lat="47.6081" lon="-2.95501">
        <ele>4.46</ele>
        <time>2016-08-26T10:56:38Z</time>
      </trkpt>
      <trkpt lat="47.60842" lon="-2.95543">
        <ele>3.98</ele>
        <time>2016-08-26T10:57:03Z</time>
      </trkpt>
      <trkpt lat="47.60883" lon="-2.9559">
        <ele>3.02</ele>
        <time>2016-08-26T10:57:33Z</time>
      </trkpt>
      <trkpt lat="47.60894" lon="-2.95588">
        <ele>3.5</ele>
        <time>2016-08-26T10:57:45Z</time>
      </trkpt>
      <trkpt lat="47.60899" lon="-2.95541">
        <ele>3.98</ele>
        <time>2016-08-26T10:58:08Z</time>
      </trkpt>
      <trkpt lat="47.60917" lon="-2.95485">
        <ele>3.98</ele>
        <time>2016-08-26T10:58:33Z</time>
      </trkpt>
      <trkpt lat="47.60939" lon="-2.95442">
        <ele>3.02</ele>
        <time>2016-08-26T10:58:55Z</time>
      </trkpt>
      <trkpt lat="47.60967" lon="-2.954">
        <ele>2.54</ele>
        <time>2016-08-26T10:59:17Z</time>
      </trkpt>
      <trkpt lat="47.60993" lon="-2.9536">
        <ele>2.54</ele>
        <time>2016-08-26T10:59:45Z</time>
      </trkpt>
      <trkpt lat="47.61017" lon="-2.9531">
        <ele>2.54</ele>
        <time>2016-08-26T11:00:13Z</time>
      </trkpt>
      <trkpt lat="47.61037" lon="-2.95249">
        <ele>2.54</ele>
        <time>2016-08-26T11:00:40Z</time>
      </trkpt>
      <trkpt lat="47.61054" lon="-2.95203">
        <ele>3.02</ele>
        <time>2016-08-26T11:01:00Z</time>
      </trkpt>
      <trkpt lat="47.61073" lon="-2.95195">
        <ele>2.54</ele>
        <time>2016-08-26T11:01:17Z</time>
      </trkpt>
      <trkpt lat="47.61105" lon="-2.95257">
        <ele>2.54</ele>
        <time>2016-08-26T11:01:46Z</time>
      </trkpt>
      <trkpt lat="47.61129" lon="-2.95289">
        <ele>2.54</ele>
        <time>2016-08-26T11:02:04Z</time>
      </trkpt>
      <trkpt lat="47.61146" lon="-2.95245">
        <ele>3.02</ele>
        <time>2016-08-26T11:02:27Z</time>
      </trkpt>
      <trkpt lat="47.61174" lon="-2.95191">
        <ele>2.06</ele>
        <time>2016-08-26T11:02:51Z</time>
      </trkpt>
      <trkpt lat="47.61202" lon="-2.95139">
        <ele>2.06</ele>
        <time>2016-08-26T11:03:17Z</time>
      </trkpt>
      <trkpt lat="47.61234" lon="-2.95087">
        <ele>2.54</ele>
        <time>2016-08-26T11:03:45Z</time>
      </trkpt>
      <trkpt lat="47.61239" lon="-2.95089">
        <ele>2.54</ele>
        <time>2016-08-26T11:03:50Z</time>
      </trkpt>
      <trkpt lat="47.61258" lon="-2.95134">
        <ele>2.54</ele>
        <time>2016-08-26T11:04:15Z</time>
      </trkpt>
      <trkpt lat="47.61281" lon="-2.95173">
        <ele>2.54</ele>
        <time>2016-08-26T11:04:38Z</time>
      </trkpt>
      <trkpt lat="47.6129" lon="-2.95135">
        <ele>3.02</ele>
        <time>2016-08-26T11:04:55Z</time>
      </trkpt>
      <trkpt lat="47.61308" lon="-2.95084">
        <ele>2.54</ele>
        <time>2016-08-26T11:05:18Z</time>
      </trkpt>
      <trkpt lat="47.61338" lon="-2.95038">
        <ele>2.54</ele>
        <time>2016-08-26T11:05:43Z</time>
      </trkpt>
      <trkpt lat="47.61353" lon="-2.95068">
        <ele>2.54</ele>
        <time>2016-08-26T11:06:02Z</time>
      </trkpt>
      <trkpt lat="47.61377" lon="-2.95151">
        <ele>2.54</ele>
        <time>2016-08-26T11:06:35Z</time>
      </trkpt>
      <trkpt lat="47.61394" lon="-2.95189">
        <ele>3.02</ele>
        <time>2016-08-26T11:06:54Z</time>
      </trkpt>
      <trkpt lat="47.61395" lon="-2.95188">
        <ele>3.02</ele>
        <time>2016-08-26T11:06:55Z</time>
      </trkpt>
      <trkpt lat="47.61398" lon="-2.95181">
        <ele>3.02</ele>
        <time>2016-08-26T11:07:00Z</time>
      </trkpt>
      <trkpt lat="47.61422" lon="-2.95122">
        <ele>2.54</ele>
        <time>2016-08-26T11:07:24Z</time>
      </trkpt>
      <trkpt lat="47.61455" lon="-2.95082">
        <ele>1.1</ele>
        <time>2016-08-26T11:07:49Z</time>
      </trkpt>
      <trkpt lat="47.61486" lon="-2.95046">
        <ele>1.1</ele>
        <time>2016-08-26T11:08:16Z</time>
      </trkpt>
      <trkpt lat="47.61509" lon="-2.95019">
        <ele>2.06</ele>
        <time>2016-08-26T11:08:38Z</time>
      </trkpt>
      <trkpt lat="47.61511" lon="-2.95022">
        <ele>2.06</ele>
        <time>2016-08-26T11:08:41Z</time>
      </trkpt>
      <trkpt lat="47.61525" lon="-2.9507">
        <ele>2.54</ele>
        <time>2016-08-26T11:09:06Z</time>
      </trkpt>
      <trkpt lat="47.6155" lon="-2.95131">
        <ele>2.06</ele>
        <time>2016-08-26T11:09:34Z</time>
      </trkpt>
      <trkpt lat="47.61571" lon="-2.95163">
        <ele>2.06</ele>
        <time>2016-08-26T11:09:52Z</time>
      </trkpt>
      <trkpt lat="47.61576" lon="-2.95158">
        <ele>2.06</ele>
        <time>2016-08-26T11:09:57Z</time>
      </trkpt>
      <trkpt lat="47.61599" lon="-2.95111">
        <ele>2.06</ele>
        <time>2016-08-26T11:10:21Z</time>
      </trkpt>
      <trkpt lat="47.61619" lon="-2.9507">
        <ele>2.54</ele>
        <time>2016-08-26T11:10:44Z</time>
      </trkpt>
      <trkpt lat="47.61627" lon="-2.95044">
        <ele>3.02</ele>
        <time>2016-08-26T11:11:02Z</time>
      </trkpt>
      <trkpt lat="47.61632" lon="-2.95049">
        <ele>3.02</ele>
        <time>2016-08-26T11:11:12Z</time>
      </trkpt>
      <trkpt lat="47.61649" lon="-2.95088">
        <ele>2.54</ele>
        <time>2016-08-26T11:11:32Z</time>
      </trkpt>
      <trkpt lat="47.61694" lon="-2.95126">
        <ele>1.58</ele>
        <time>2016-08-26T11:11:58Z</time>
      </trkpt>
      <trkpt lat="47.61726" lon="-2.95157">
        <ele>2.06</ele>
        <time>2016-08-26T11:12:21Z</time>
      </trkpt>
      <trkpt lat="47.61772" lon="-2.95199">
        <ele>1.58</ele>
        <time>2016-08-26T11:12:49Z</time>
      </trkpt>
      <trkpt lat="47.61826" lon="-2.95234">
        <ele>1.58</ele>
        <time>2016-08-26T11:13:19Z</time>
      </trkpt>
      <trkpt lat="47.61877" lon="-2.95286">
        <ele>2.06</ele>
        <time>2016-08-26T11:13:56Z</time>
      </trkpt>
      <trkpt lat="47.61907" lon="-2.95309">
        <ele>2.06</ele>
        <time>2016-08-26T11:14:20Z</time>
      </trkpt>
      <trkpt lat="47.61917" lon="-2.95263">
        <ele>2.06</ele>
        <time>2016-08-26T11:14:44Z</time>
      </trkpt>
      <trkpt lat="47.61925" lon="-2.95216">
        <ele>2.54</ele>
        <time>2016-08-26T11:15:10Z</time>
      </trkpt>
      <trkpt lat="47.61927" lon="-2.9517">
        <ele>2.06</ele>
        <time>2016-08-26T11:15:35Z</time>
      </trkpt>
      <trkpt lat="47.6194" lon="-2.9513">
        <ele>2.06</ele>
        <time>2016-08-26T11:16:02Z</time>
      </trkpt>
      <trkpt lat="47.61943" lon="-2.95133">
        <ele>2.06</ele>
        <time>2016-08-26T11:16:08Z</time>
      </trkpt>
      <trkpt lat="47.61957" lon="-2.95172">
        <ele>2.06</ele>
        <time>2016-08-26T11:16:32Z</time>
      </trkpt>
      <trkpt lat="47.61982" lon="-2.95207">
        <ele>0.14</ele>
        <time>2016-08-26T11:16:58Z</time>
      </trkpt>
      <trkpt lat="47.62013" lon="-2.95244">
        <ele>0.62</ele>
        <time>2016-08-26T11:17:26Z</time>
      </trkpt>
      <trkpt lat="47.62055" lon="-2.95283">
        <ele>-0.34</ele>
        <time>2016-08-26T11:17:54Z</time>
      </trkpt>
      <trkpt lat="47.62109" lon="-2.95314">
        <ele>0.14</ele>
        <time>2016-08-26T11:18:23Z</time>
      </trkpt>
      <trkpt lat="47.6217" lon="-2.95359">
        <ele>-0.34</ele>
        <time>2016-08-26T11:18:57Z</time>
      </trkpt>
      <trkpt lat="47.62219" lon="-2.95402">
        <ele>1.58</ele>
        <time>2016-08-26T11:19:30Z</time>
      </trkpt>
      <trkpt lat="47.6226" lon="-2.95446">
        <ele>3.02</ele>
        <time>2016-08-26T11:20:03Z</time>
      </trkpt>
      <trkpt lat="47.623" lon="-2.95497">
        <ele>2.06</ele>
        <time>2016-08-26T11:20:37Z</time>
      </trkpt>
      <trkpt lat="47.62335" lon="-2.95541">
        <ele>2.54</ele>
        <time>2016-08-26T11:21:09Z</time>
      </trkpt>
      <trkpt lat="47.62373" lon="-2.9558">
        <ele>2.06</ele>
        <time>2016-08-26T11:21:44Z</time>
      </trkpt>
      <trkpt lat="47.62419" lon="-2.95615">
        <ele>2.06</ele>
        <time>2016-08-26T11:22:17Z</time>
      </trkpt>
      <trkpt lat="47.62458" lon="-2.95656">
        <ele>2.54</ele>
        <time>2016-08-26T11:22:49Z</time>
      </trkpt>
      <trkpt lat="47.62489" lon="-2.95698">
        <ele>2.06</ele>
        <time>2016-08-26T11:23:26Z</time>
      </trkpt>
      <trkpt lat="47.62503" lon="-2.95726">
        <ele>2.54</ele>
        <time>2016-08-26T11:23:58Z</time>
      </trkpt>
      <trkpt lat="47.62512" lon="-2.95747">
        <ele>3.02</ele>
        <time>2016-08-26T11:24:33Z</time>
      </trkpt>
      <trkpt lat="47.62522" lon="-2.95779">
        <ele>2.06</ele>
        <time>2016-08-26T11:25:02Z</time>
      </trkpt>
      <trkpt lat="47.62533" lon="-2.9581">
        <ele>1.58</ele>
        <time>2016-08-26T11:25:37Z</time>
      </trkpt>
      <trkpt lat="47.62545" lon="-2.9583">
        <ele>1.58</ele>
        <time>2016-08-26T11:26:05Z</time>
      </trkpt>
      <trkpt lat="47.62554" lon="-2.95848">
        <ele>1.58</ele>
        <time>2016-08-26T11:26:25Z</time>
      </trkpt>
      <trkpt lat="47.62585" lon="-2.95867">
        <ele>1.1</ele>
        <time>2016-08-26T11:26:47Z</time>
      </trkpt>
      <trkpt lat="47.62634" lon="-2.95882">
        <ele>2.06</ele>
        <time>2016-08-26T11:27:21Z</time>
      </trkpt>
      <trkpt lat="47.62667" lon="-2.95901">
        <ele>1.58</ele>
        <time>2016-08-26T11:27:46Z</time>
      </trkpt>
      <trkpt lat="47.62703" lon="-2.95939">
        <ele>1.58</ele>
        <time>2016-08-26T11:28:10Z</time>
      </trkpt>
      <trkpt lat="47.6275" lon="-2.95953">
        <ele>2.06</ele>
        <time>2016-08-26T11:28:35Z</time>
      </trkpt>
      <trkpt lat="47.62806" lon="-2.95968">
        <ele>1.58</ele>
        <time>2016-08-26T11:29:05Z</time>
      </trkpt>
      <trkpt lat="47.62854" lon="-2.95975">
        <ele>1.58</ele>
        <time>2016-08-26T11:29:33Z</time>
      </trkpt>
      <trkpt lat="47.62893" lon="-2.95978">
        <ele>1.58</ele>
        <time>2016-08-26T11:29:59Z</time>
      </trkpt>
      <trkpt lat="47.62934" lon="-2.95979">
        <ele>1.58</ele>
        <time>2016-08-26T11:30:25Z</time>
      </trkpt>
      <trkpt lat="47.62969" lon="-2.9598">
        <ele>2.54</ele>
        <time>2016-08-26T11:30:48Z</time>
      </trkpt>
      <trkpt lat="47.63019" lon="-2.95981">
        <ele>2.54</ele>
        <time>2016-08-26T11:31:21Z</time>
      </trkpt>
      <trkpt lat="47.63059" lon="-2.95986">
        <ele>1.58</ele>
        <time>2016-08-26T11:31:49Z</time>
      </trkpt>
      <trkpt lat="47.63093" lon="-2.95993">
        <ele>1.58</ele>
        <time>2016-08-26T11:32:12Z</time>
      </trkpt>
      <trkpt lat="47.63131" lon="-2.96006">
        <ele>2.54</ele>
        <time>2016-08-26T11:32:39Z</time>
      </trkpt>
      <trkpt lat="47.63175" lon="-2.96022">
        <ele>3.5</ele>
        <time>2016-08-26T11:33:09Z</time>
      </trkpt>
      <trkpt lat="47.63203" lon="-2.96042">
        <ele>1.1</ele>
        <time>2016-08-26T11:33:28Z</time>
      </trkpt>
      <trkpt lat="47.63234" lon="-2.96068">
        <ele>1.58</ele>
        <time>2016-08-26T11:33:50Z</time>
      </trkpt>
      <trkpt lat="47.63264" lon="-2.96095">
        <ele>1.1</ele>
        <time>2016-08-26T11:34:13Z</time>
      </trkpt>
      <trkpt lat="47.63315" lon="-2.96141">
        <ele>1.58</ele>
        <time>2016-08-26T11:34:50Z</time>
      </trkpt>
      <trkpt lat="47.63346" lon="-2.96165">
        <ele>1.1</ele>
        <time>2016-08-26T11:35:12Z</time>
      </trkpt>
      <trkpt lat="47.63387" lon="-2.96197">
        <ele>1.1</ele>
        <time>2016-08-26T11:35:41Z</time>
      </trkpt>
      <trkpt lat="47.6342" lon="-2.96227">
        <ele>2.06</ele>
        <time>2016-08-26T11:36:05Z</time>
      </trkpt>
      <trkpt lat="47.63454" lon="-2.96259">
        <ele>2.06</ele>
        <time>2016-08-26T11:36:30Z</time>
      </trkpt>
      <trkpt lat="47.63486" lon="-2.96283">
        <ele>2.06</ele>
        <time>2016-08-26T11:36:53Z</time>
      </trkpt>
      <trkpt lat="47.63528" lon="-2.96311">
        <ele>2.06</ele>
        <time>2016-08-26T11:37:22Z</time>
      </trkpt>
      <trkpt lat="47.63568" lon="-2.96332">
        <ele>2.06</ele>
        <time>2016-08-26T11:37:48Z</time>
      </trkpt>
      <trkpt lat="47.63612" lon="-2.96334">
        <ele>1.1</ele>
        <time>2016-08-26T11:38:16Z</time>
      </trkpt>
      <trkpt lat="47.63622" lon="-2.96299">
        <ele>2.06</ele>
        <time>2016-08-26T11:38:33Z</time>
      </trkpt>
      <trkpt lat="47.63642" lon="-2.96239">
        <ele>2.06</ele>
        <time>2016-08-26T11:39:02Z</time>
      </trkpt>
      <trkpt lat="47.63661" lon="-2.96176">
        <ele>3.02</ele>
        <time>2016-08-26T11:39:31Z</time>
      </trkpt>
      <trkpt lat="47.63681" lon="-2.96108">
        <ele>2.54</ele>
        <time>2016-08-26T11:40:02Z</time>
      </trkpt>
      <trkpt lat="47.637" lon="-2.96053">
        <ele>2.54</ele>
        <time>2016-08-26T11:40:28Z</time>
      </trkpt>
      <trkpt lat="47.63722" lon="-2.96007">
        <ele>3.02</ele>
        <time>2016-08-26T11:40:53Z</time>
      </trkpt>
      <trkpt lat="47.63743" lon="-2.95958">
        <ele>3.98</ele>
        <time>2016-08-26T11:41:19Z</time>
      </trkpt>
      <trkpt lat="47.63764" lon="-2.95902">
        <ele>5.42</ele>
        <time>2016-08-26T11:41:47Z</time>
      </trkpt>
      <trkpt lat="47.63782" lon="-2.95841">
        <ele>3.02</ele>
        <time>2016-08-26T11:42:16Z</time>
      </trkpt>
      <trkpt lat="47.638" lon="-2.95788">
        <ele>3.02</ele>
        <time>2016-08-26T11:42:43Z</time>
      </trkpt>
      <trkpt lat="47.63815" lon="-2.95736">
        <ele>2.54</ele>
        <time>2016-08-26T11:43:08Z</time>
      </trkpt>
      <trkpt lat="47.63829" lon="-2.95701">
        <ele>2.54</ele>
        <time>2016-08-26T11:43:26Z</time>
      </trkpt>
      <trkpt lat="47.63851" lon="-2.9565">
        <ele>4.46</ele>
        <time>2016-08-26T11:43:54Z</time>
      </trkpt>
      <trkpt lat="47.63867" lon="-2.95613">
        <ele>5.91</ele>
        <time>2016-08-26T11:44:19Z</time>
      </trkpt>
      <trkpt lat="47.63874" lon="-2.95581">
        <ele>4.46</ele>
        <time>2016-08-26T11:44:43Z</time>
      </trkpt>
      <trkpt lat="47.63887" lon="-2.95545">
        <ele>3.98</ele>
        <time>2016-08-26T11:45:09Z</time>
      </trkpt>
      <trkpt lat="47.63896" lon="-2.95513">
        <ele>4.94</ele>
        <time>2016-08-26T11:45:32Z</time>
      </trkpt>
      <trkpt lat="47.63905" lon="-2.95483">
        <ele>5.42</ele>
        <time>2016-08-26T11:45:53Z</time>
      </trkpt>
      <trkpt lat="47.6391" lon="-2.95458">
        <ele>4.94</ele>
        <time>2016-08-26T11:46:11Z</time>
      </trkpt>
      <trkpt lat="47.63922" lon="-2.95431">
        <ele>6.87</ele>
        <time>2016-08-26T11:46:30Z</time>
      </trkpt>
      <trkpt lat="47.63949" lon="-2.95386">
        <ele>6.39</ele>
        <time>2016-08-26T11:46:59Z</time>
      </trkpt>
      <trkpt lat="47.63974" lon="-2.9538">
        <ele>4.94</ele>
        <time>2016-08-26T11:47:25Z</time>
      </trkpt>
      <trkpt lat="47.63987" lon="-2.95384">
        <ele>2.54</ele>
        <time>2016-08-26T11:47:48Z</time>
      </trkpt>
      <trkpt lat="47.63991" lon="-2.9539">
        <ele>1.58</ele>
        <time>2016-08-26T11:48:09Z</time>
      </trkpt>
      <trkpt lat="47.64004" lon="-2.95388">
        <ele>2.54</ele>
        <time>2016-08-26T11:48:30Z</time>
      </trkpt>
      <trkpt lat="47.64003" lon="-2.95385">
        <ele>2.06</ele>
        <time>2016-08-26T11:48:47Z</time>
      </trkpt>
      <trkpt lat="47.64012" lon="-2.95364">
        <ele>2.06</ele>
        <time>2016-08-26T11:49:04Z</time>
      </trkpt>
      <trkpt lat="47.64025" lon="-2.95359">
        <ele>-0.82</ele>
        <time>2016-08-26T11:49:32Z</time>
      </trkpt>
      <trkpt lat="47.64012" lon="-2.9537">
        <ele>-1.3</ele>
        <time>2016-08-26T11:49:55Z</time>
      </trkpt>
      <trkpt lat="47.63985" lon="-2.95394">
        <ele>0.62</ele>
        <time>2016-08-26T11:50:24Z</time>
      </trkpt>
      <trkpt lat="47.63964" lon="-2.95406">
        <ele>0.62</ele>
        <time>2016-08-26T11:50:50Z</time>
      </trkpt>
      <trkpt lat="47.63955" lon="-2.95416">
        <ele>1.58</ele>
        <time>2016-08-26T11:51:12Z</time>
      </trkpt>
      <trkpt lat="47.63954" lon="-2.95412">
        <ele>2.54</ele>
        <time>2016-08-26T11:51:37Z</time>
      </trkpt>
      <trkpt lat="47.63953" lon="-2.95413">
        <ele>3.02</ele>
        <time>2016-08-26T11:52:07Z</time>
      </trkpt>
      <trkpt lat="47.63952" lon="-2.95412">
        <ele>3.98</ele>
        <time>2016-08-26T11:52:40Z</time>
      </trkpt>
      <trkpt lat="47.63951" lon="-2.95412">
        <ele>4.46</ele>
        <time>2016-08-26T11:53:08Z</time>
      </trkpt>
      <trkpt lat="47.63951" lon="-2.95413">
        <ele>4.94</ele>
        <time>2016-08-26T11:53:33Z</time>
      </trkpt>
      <trkpt lat="47.63951" lon="-2.95412">
        <ele>4.94</ele>
        <time>2016-08-26T11:54:03Z</time>
      </trkpt>
      <trkpt lat="47.63951" lon="-2.95413">
        <ele>4.94</ele>
        <time>2016-08-26T11:54:29Z</time>
      </trkpt>
      <trkpt lat="47.63952" lon="-2.95412">
        <ele>4.94</ele>
        <time>2016-08-26T11:55:02Z</time>
      </trkpt>
      <trkpt lat="47.63951" lon="-2.95412">
        <ele>4.94</ele>
        <time>2016-08-26T11:55:34Z</time>
      </trkpt>
      <trkpt lat="47.63951" lon="-2.95412">
        <ele>5.42</ele>
        <time>2016-08-26T11:55:59Z</time>
      </trkpt>
      <trkpt lat="47.63951" lon="-2.95411">
        <ele>5.42</ele>
        <time>2016-08-26T11:56:16Z</time>
      </trkpt>
      <trkpt lat="47.6395" lon="-2.9541">
        <ele>5.91</ele>
        <time>2016-08-26T11:56:45Z</time>
      </trkpt>
      <trkpt lat="47.63951" lon="-2.95411">
        <ele>5.42</ele>
        <time>2016-08-26T11:57:07Z</time>
      </trkpt>
      <trkpt lat="47.63951" lon="-2.95411">
        <ele>4.94</ele>
        <time>2016-08-26T11:57:29Z</time>
      </trkpt>
      <trkpt lat="47.63951" lon="-2.95411">
        <ele>4.46</ele>
        <time>2016-08-26T11:57:59Z</time>
      </trkpt>
      <trkpt lat="47.6395" lon="-2.95411">
        <ele>3.5</ele>
        <time>2016-08-26T11:58:32Z</time>
      </trkpt>
      <trkpt lat="47.63949" lon="-2.95412">
        <ele>3.02</ele>
        <time>2016-08-26T11:58:57Z</time>
      </trkpt>
      <trkpt lat="47.6395" lon="-2.95412">
        <ele>3.02</ele>
        <time>2016-08-26T11:59:22Z</time>
      </trkpt>
      <trkpt lat="47.6395" lon="-2.95412">
        <ele>3.5</ele>
        <time>2016-08-26T11:59:54Z</time>
      </trkpt>
      <trkpt lat="47.6395" lon="-2.95414">
        <ele>3.98</ele>
        <time>2016-08-26T12:00:19Z</time>
      </trkpt>
      <trkpt lat="47.6395" lon="-2.95415">
        <ele>4.46</ele>
        <time>2016-08-26T12:00:46Z</time>
      </trkpt>
      <trkpt lat="47.6395" lon="-2.95416">
        <ele>4.46</ele>
        <time>2016-08-26T12:01:13Z</time>
      </trkpt>
      <trkpt lat="47.6395" lon="-2.95416">
        <ele>4.46</ele>
        <time>2016-08-26T12:01:44Z</time>
      </trkpt>
      <trkpt lat="47.6395" lon="-2.95415">
        <ele>3.98</ele>
        <time>2016-08-26T12:02:10Z</time>
      </trkpt>
      <trkpt lat="47.6395" lon="-2.95415">
        <ele>4.46</ele>
        <time>2016-08-26T12:02:41Z</time>
      </trkpt>
      <trkpt lat="47.6395" lon="-2.95414">
        <ele>4.94</ele>
        <time>2016-08-26T12:03:12Z</time>
      </trkpt>
      <trkpt lat="47.63949" lon="-2.95414">
        <ele>4.94</ele>
        <time>2016-08-26T12:03:41Z</time>
      </trkpt>
      <trkpt lat="47.63949" lon="-2.95414">
        <ele>4.94</ele>
        <time>2016-08-26T12:04:07Z</time>
      </trkpt>
      <trkpt lat="47.6395" lon="-2.95415">
        <ele>4.94</ele>
        <time>2016-08-26T12:04:33Z</time>
      </trkpt>
      <trkpt lat="47.6395" lon="-2.95414">
        <ele>5.42</ele>
        <time>2016-08-26T12:05:04Z</time>
      </trkpt>
      <trkpt lat="47.6395" lon="-2.95415">
        <ele>5.91</ele>
        <time>2016-08-26T12:05:32Z</time>
      </trkpt>
      <trkpt lat="47.6395" lon="-2.95415">
        <ele>5.91</ele>
        <time>2016-08-26T12:06:00Z</time>
      </trkpt>
      <trkpt lat="47.6395" lon="-2.95413">
        <ele>5.91</ele>
        <time>2016-08-26T12:06:30Z</time>
      </trkpt>
      <trkpt lat="47.6395" lon="-2.95413">
        <ele>5.42</ele>
        <time>2016-08-26T12:06:58Z</time>
      </trkpt>
      <trkpt lat="47.63951" lon="-2.95413">
        <ele>6.39</ele>
        <time>2016-08-26T12:07:29Z</time>
      </trkpt>
      <trkpt lat="47.63951" lon="-2.95413">
        <ele>6.87</ele>
        <time>2016-08-26T12:07:58Z</time>
      </trkpt>
      <trkpt lat="47.6395" lon="-2.95413">
        <ele>6.87</ele>
        <time>2016-08-26T12:08:25Z</time>
      </trkpt>
      <trkpt lat="47.6395" lon="-2.95412">
        <ele>7.35</ele>
        <time>2016-08-26T12:08:59Z</time>
      </trkpt>
      <trkpt lat="47.63949" lon="-2.95412">
        <ele>6.87</ele>
        <time>2016-08-26T12:09:32Z</time>
      </trkpt>
      <trkpt lat="47.63949" lon="-2.95412">
        <ele>6.39</ele>
        <time>2016-08-26T12:10:01Z</time>
      </trkpt>
      <trkpt lat="47.63949" lon="-2.95412">
        <ele>6.39</ele>
        <time>2016-08-26T12:10:30Z</time>
      </trkpt>
      <trkpt lat="47.63949" lon="-2.95412">
        <ele>6.87</ele>
        <time>2016-08-26T12:10:56Z</time>
      </trkpt>
      <trkpt lat="47.6395" lon="-2.95413">
        <ele>7.35</ele>
        <time>2016-08-26T12:11:29Z</time>
      </trkpt>
      <trkpt lat="47.63951" lon="-2.95412">
        <ele>7.83</ele>
        <time>2016-08-26T12:12:01Z</time>
      </trkpt>
      <trkpt lat="47.63951" lon="-2.95412">
        <ele>8.79</ele>
        <time>2016-08-26T12:12:33Z</time>
      </trkpt>
      <trkpt lat="47.63951" lon="-2.95411">
        <ele>7.83</ele>
        <time>2016-08-26T12:13:02Z</time>
      </trkpt>
      <trkpt lat="47.63951" lon="-2.95411">
        <ele>7.83</ele>
        <time>2016-08-26T12:13:33Z</time>
      </trkpt>
      <trkpt lat="47.6395" lon="-2.9541">
        <ele>8.31</ele>
        <time>2016-08-26T12:13:54Z</time>
      </trkpt>
      <trkpt lat="47.6385" lon="-2.95666">
        <ele>9.75</ele>
        <time>2016-08-26T13:16:55Z</time>
      </trkpt>
      <trkpt lat="47.63831" lon="-2.95707">
        <ele>-0.34</ele>
        <time>2016-08-26T13:17:18Z</time>
      </trkpt>
      <trkpt lat="47.63816" lon="-2.95744">
        <ele>0.14</ele>
        <time>2016-08-26T13:17:38Z</time>
      </trkpt>
      <trkpt lat="47.63807" lon="-2.95761">
        <ele>0.14</ele>
        <time>2016-08-26T13:17:48Z</time>
      </trkpt>
      <trkpt lat="47.63794" lon="-2.95796">
        <ele>2.06</ele>
        <time>2016-08-26T13:18:06Z</time>
      </trkpt>
      <trkpt lat="47.63782" lon="-2.95836">
        <ele>1.1</ele>
        <time>2016-08-26T13:18:26Z</time>
      </trkpt>
      <trkpt lat="47.63768" lon="-2.95884">
        <ele>2.54</ele>
        <time>2016-08-26T13:18:49Z</time>
      </trkpt>
      <trkpt lat="47.63757" lon="-2.95913">
        <ele>1.58</ele>
        <time>2016-08-26T13:19:04Z</time>
      </trkpt>
      <trkpt lat="47.6374" lon="-2.95956">
        <ele>1.1</ele>
        <time>2016-08-26T13:19:28Z</time>
      </trkpt>
      <trkpt lat="47.63728" lon="-2.95989">
        <ele>1.1</ele>
        <time>2016-08-26T13:19:46Z</time>
      </trkpt>
      <trkpt lat="47.63725" lon="-2.95999">
        <ele>1.1</ele>
        <time>2016-08-26T13:19:51Z</time>
      </trkpt>
      <trkpt lat="47.63715" lon="-2.96027">
        <ele>-0.34</ele>
        <time>2016-08-26T13:20:07Z</time>
      </trkpt>
      <trkpt lat="47.63701" lon="-2.96057">
        <ele>0.62</ele>
        <time>2016-08-26T13:20:25Z</time>
      </trkpt>
      <trkpt lat="47.63691" lon="-2.96082">
        <ele>1.1</ele>
        <time>2016-08-26T13:20:39Z</time>
      </trkpt>
      <trkpt lat="47.63674" lon="-2.9613">
        <ele>2.06</ele>
        <time>2016-08-26T13:21:05Z</time>
      </trkpt>
      <trkpt lat="47.63668" lon="-2.9615">
        <ele>1.58</ele>
        <time>2016-08-26T13:21:15Z</time>
      </trkpt>
      <trkpt lat="47.63665" lon="-2.9616">
        <ele>1.1</ele>
        <time>2016-08-26T13:21:20Z</time>
      </trkpt>
      <trkpt lat="47.63653" lon="-2.96216">
        <ele>-1.3</ele>
        <time>2016-08-26T13:21:47Z</time>
      </trkpt>
      <trkpt lat="47.6364" lon="-2.9627">
        <ele>0.14</ele>
        <time>2016-08-26T13:22:13Z</time>
      </trkpt>
      <trkpt lat="47.63634" lon="-2.96306">
        <ele>0.14</ele>
        <time>2016-08-26T13:22:32Z</time>
      </trkpt>
      <trkpt lat="47.63621" lon="-2.96337">
        <ele>0.14</ele>
        <time>2016-08-26T13:22:49Z</time>
      </trkpt>
      <trkpt lat="47.63595" lon="-2.96345">
        <ele>-0.34</ele>
        <time>2016-08-26T13:23:09Z</time>
      </trkpt>
      <trkpt lat="47.63556" lon="-2.96335">
        <ele>1.1</ele>
        <time>2016-08-26T13:23:37Z</time>
      </trkpt>
      <trkpt lat="47.63531" lon="-2.96331">
        <ele>2.54</ele>
        <time>2016-08-26T13:23:54Z</time>
      </trkpt>
      <trkpt lat="47.63532" lon="-2.96308">
        <ele>1.58</ele>
        <time>2016-08-26T13:24:11Z</time>
      </trkpt>
      <trkpt lat="47.63539" lon="-2.9631">
        <ele>0.14</ele>
        <time>2016-08-26T13:24:20Z</time>
      </trkpt>
      <trkpt lat="47.63548" lon="-2.96313">
        <ele>-0.82</ele>
        <time>2016-08-26T13:24:32Z</time>
      </trkpt>
      <trkpt lat="47.63561" lon="-2.96317">
        <ele>-0.82</ele>
        <time>2016-08-26T13:24:47Z</time>
      </trkpt>
      <trkpt lat="47.63576" lon="-2.96328">
        <ele>0.62</ele>
        <time>2016-08-26T13:25:08Z</time>
      </trkpt>
      <trkpt lat="47.63585" lon="-2.9633">
        <ele>0.14</ele>
        <time>2016-08-26T13:25:21Z</time>
      </trkpt>
      <trkpt lat="47.63587" lon="-2.96326">
        <ele>0.62</ele>
        <time>2016-08-26T13:25:24Z</time>
      </trkpt>
      <trkpt lat="47.63585" lon="-2.96309">
        <ele>0.62</ele>
        <time>2016-08-26T13:25:33Z</time>
      </trkpt>
      <trkpt lat="47.63566" lon="-2.96301">
        <ele>1.58</ele>
        <time>2016-08-26T13:25:46Z</time>
      </trkpt>
      <trkpt lat="47.63538" lon="-2.96301">
        <ele>0.14</ele>
        <time>2016-08-26T13:26:05Z</time>
      </trkpt>
      <trkpt lat="47.63503" lon="-2.96282">
        <ele>0.62</ele>
        <time>2016-08-26T13:26:29Z</time>
      </trkpt>
      <trkpt lat="47.6347" lon="-2.96264">
        <ele>0.62</ele>
        <time>2016-08-26T13:26:51Z</time>
      </trkpt>
      <trkpt lat="47.63451" lon="-2.96246">
        <ele>0.62</ele>
        <time>2016-08-26T13:27:05Z</time>
      </trkpt>
      <trkpt lat="47.63406" lon="-2.96193">
        <ele>2.06</ele>
        <time>2016-08-26T13:27:32Z</time>
      </trkpt>
      <trkpt lat="47.63356" lon="-2.96142">
        <ele>1.58</ele>
        <time>2016-08-26T13:27:58Z</time>
      </trkpt>
      <trkpt lat="47.63315" lon="-2.96105">
        <ele>1.1</ele>
        <time>2016-08-26T13:28:19Z</time>
      </trkpt>
      <trkpt lat="47.63264" lon="-2.96081">
        <ele>1.58</ele>
        <time>2016-08-26T13:28:42Z</time>
      </trkpt>
      <trkpt lat="47.63232" lon="-2.96071">
        <ele>1.58</ele>
        <time>2016-08-26T13:28:56Z</time>
      </trkpt>
      <trkpt lat="47.63184" lon="-2.96057">
        <ele>1.58</ele>
        <time>2016-08-26T13:29:18Z</time>
      </trkpt>
      <trkpt lat="47.63145" lon="-2.96034">
        <ele>1.1</ele>
        <time>2016-08-26T13:29:36Z</time>
      </trkpt>
      <trkpt lat="47.63096" lon="-2.96008">
        <ele>1.58</ele>
        <time>2016-08-26T13:29:58Z</time>
      </trkpt>
      <trkpt lat="47.63041" lon="-2.95996">
        <ele>2.54</ele>
        <time>2016-08-26T13:30:20Z</time>
      </trkpt>
      <trkpt lat="47.62997" lon="-2.9599">
        <ele>3.02</ele>
        <time>2016-08-26T13:30:39Z</time>
      </trkpt>
      <trkpt lat="47.62944" lon="-2.95994">
        <ele>2.54</ele>
        <time>2016-08-26T13:31:02Z</time>
      </trkpt>
      <trkpt lat="47.629" lon="-2.95993">
        <ele>2.54</ele>
        <time>2016-08-26T13:31:21Z</time>
      </trkpt>
      <trkpt lat="47.62843" lon="-2.95993">
        <ele>2.54</ele>
        <time>2016-08-26T13:31:45Z</time>
      </trkpt>
      <trkpt lat="47.62796" lon="-2.95986">
        <ele>3.02</ele>
        <time>2016-08-26T13:32:05Z</time>
      </trkpt>
      <trkpt lat="47.62742" lon="-2.95961">
        <ele>2.54</ele>
        <time>2016-08-26T13:32:29Z</time>
      </trkpt>
      <trkpt lat="47.62688" lon="-2.95924">
        <ele>3.02</ele>
        <time>2016-08-26T13:32:54Z</time>
      </trkpt>
      <trkpt lat="47.62614" lon="-2.95865">
        <ele>1.1</ele>
        <time>2016-08-26T13:33:28Z</time>
      </trkpt>
      <trkpt lat="47.62555" lon="-2.95816">
        <ele>0.62</ele>
        <time>2016-08-26T13:33:56Z</time>
      </trkpt>
      <trkpt lat="47.62503" lon="-2.95756">
        <ele>1.58</ele>
        <time>2016-08-26T13:34:23Z</time>
      </trkpt>
      <trkpt lat="47.62473" lon="-2.95711">
        <ele>1.1</ele>
        <time>2016-08-26T13:34:40Z</time>
      </trkpt>
      <trkpt lat="47.62441" lon="-2.95659">
        <ele>0.62</ele>
        <time>2016-08-26T13:34:59Z</time>
      </trkpt>
      <trkpt lat="47.624" lon="-2.956">
        <ele>1.58</ele>
        <time>2016-08-26T13:35:22Z</time>
      </trkpt>
      <trkpt lat="47.62356" lon="-2.95539">
        <ele>1.1</ele>
        <time>2016-08-26T13:35:46Z</time>
      </trkpt>
      <trkpt lat="47.62317" lon="-2.95492">
        <ele>0.62</ele>
        <time>2016-08-26T13:36:06Z</time>
      </trkpt>
      <trkpt lat="47.6228" lon="-2.95455">
        <ele>0.62</ele>
        <time>2016-08-26T13:36:23Z</time>
      </trkpt>
      <trkpt lat="47.62215" lon="-2.95403">
        <ele>1.1</ele>
        <time>2016-08-26T13:36:51Z</time>
      </trkpt>
      <trkpt lat="47.62204" lon="-2.95368">
        <ele>3.02</ele>
        <time>2016-08-26T13:37:02Z</time>
      </trkpt>
      <trkpt lat="47.62197" lon="-2.9533">
        <ele>3.5</ele>
        <time>2016-08-26T13:37:16Z</time>
      </trkpt>
      <trkpt lat="47.62165" lon="-2.95299">
        <ele>2.06</ele>
        <time>2016-08-26T13:37:34Z</time>
      </trkpt>
      <trkpt lat="47.62124" lon="-2.95283">
        <ele>1.1</ele>
        <time>2016-08-26T13:37:56Z</time>
      </trkpt>
      <trkpt lat="47.62074" lon="-2.95266">
        <ele>0.62</ele>
        <time>2016-08-26T13:38:20Z</time>
      </trkpt>
      <trkpt lat="47.62031" lon="-2.95252">
        <ele>0.62</ele>
        <time>2016-08-26T13:38:42Z</time>
      </trkpt>
      <trkpt lat="47.61988" lon="-2.95239">
        <ele>1.1</ele>
        <time>2016-08-26T13:39:04Z</time>
      </trkpt>
      <trkpt lat="47.61953" lon="-2.95227">
        <ele>0.14</ele>
        <time>2016-08-26T13:39:20Z</time>
      </trkpt>
      <trkpt lat="47.61913" lon="-2.95217">
        <ele>-0.34</ele>
        <time>2016-08-26T13:39:39Z</time>
      </trkpt>
      <trkpt lat="47.61866" lon="-2.95203">
        <ele>1.58</ele>
        <time>2016-08-26T13:40:02Z</time>
      </trkpt>
      <trkpt lat="47.61814" lon="-2.95183">
        <ele>1.58</ele>
        <time>2016-08-26T13:40:29Z</time>
      </trkpt>
      <trkpt lat="47.6178" lon="-2.95172">
        <ele>1.1</ele>
        <time>2016-08-26T13:40:45Z</time>
      </trkpt>
      <trkpt lat="47.61729" lon="-2.95155">
        <ele>1.58</ele>
        <time>2016-08-26T13:41:09Z</time>
      </trkpt>
      <trkpt lat="47.6167" lon="-2.95134">
        <ele>1.1</ele>
        <time>2016-08-26T13:41:35Z</time>
      </trkpt>
      <trkpt lat="47.61605" lon="-2.95116">
        <ele>1.58</ele>
        <time>2016-08-26T13:42:03Z</time>
      </trkpt>
      <trkpt lat="47.61554" lon="-2.95102">
        <ele>1.58</ele>
        <time>2016-08-26T13:42:24Z</time>
      </trkpt>
      <trkpt lat="47.61522" lon="-2.95101">
        <ele>0.62</ele>
        <time>2016-08-26T13:42:36Z</time>
      </trkpt>
      <trkpt lat="47.61478" lon="-2.95103">
        <ele>-0.82</ele>
        <time>2016-08-26T13:42:53Z</time>
      </trkpt>
      <trkpt lat="47.61425" lon="-2.95113">
        <ele>1.1</ele>
        <time>2016-08-26T13:43:17Z</time>
      </trkpt>
      <trkpt lat="47.61354" lon="-2.95133">
        <ele>0.14</ele>
        <time>2016-08-26T13:43:48Z</time>
      </trkpt>
      <trkpt lat="47.61306" lon="-2.95151">
        <ele>-0.82</ele>
        <time>2016-08-26T13:44:10Z</time>
      </trkpt>
      <trkpt lat="47.61249" lon="-2.95172">
        <ele>-0.34</ele>
        <time>2016-08-26T13:44:36Z</time>
      </trkpt>
      <trkpt lat="47.61201" lon="-2.95194">
        <ele>0.14</ele>
        <time>2016-08-26T13:45:02Z</time>
      </trkpt>
      <trkpt lat="47.6115" lon="-2.95219">
        <ele>-0.82</ele>
        <time>2016-08-26T13:45:33Z</time>
      </trkpt>
      <trkpt lat="47.61118" lon="-2.95237">
        <ele>-1.3</ele>
        <time>2016-08-26T13:45:55Z</time>
      </trkpt>
      <trkpt lat="47.61076" lon="-2.95257">
        <ele>-0.34</ele>
        <time>2016-08-26T13:46:21Z</time>
      </trkpt>
      <trkpt lat="47.6103" lon="-2.95279">
        <ele>0.14</ele>
        <time>2016-08-26T13:46:44Z</time>
      </trkpt>
      <trkpt lat="47.60965" lon="-2.95307">
        <ele>-0.82</ele>
        <time>2016-08-26T13:47:12Z</time>
      </trkpt>
      <trkpt lat="47.60907" lon="-2.95334">
        <ele>-0.34</ele>
        <time>2016-08-26T13:47:35Z</time>
      </trkpt>
      <trkpt lat="47.60847" lon="-2.95356">
        <ele>-0.82</ele>
        <time>2016-08-26T13:48:00Z</time>
      </trkpt>
      <trkpt lat="47.60802" lon="-2.9537">
        <ele>-0.34</ele>
        <time>2016-08-26T13:48:23Z</time>
      </trkpt>
      <trkpt lat="47.60747" lon="-2.95382">
        <ele>0.62</ele>
        <time>2016-08-26T13:48:53Z</time>
      </trkpt>
      <trkpt lat="47.60697" lon="-2.95391">
        <ele>0.62</ele>
        <time>2016-08-26T13:49:22Z</time>
      </trkpt>
      <trkpt lat="47.60646" lon="-2.95393">
        <ele>0.62</ele>
        <time>2016-08-26T13:49:51Z</time>
      </trkpt>
      <trkpt lat="47.60605" lon="-2.95397">
        <ele>1.1</ele>
        <time>2016-08-26T13:50:14Z</time>
      </trkpt>
      <trkpt lat="47.60554" lon="-2.95399">
        <ele>2.06</ele>
        <time>2016-08-26T13:50:41Z</time>
      </trkpt>
      <trkpt lat="47.60523" lon="-2.95399">
        <ele>2.06</ele>
        <time>2016-08-26T13:50:59Z</time>
      </trkpt>
      <trkpt lat="47.60464" lon="-2.95401">
        <ele>1.58</ele>
        <time>2016-08-26T13:51:34Z</time>
      </trkpt>
      <trkpt lat="47.60418" lon="-2.95402">
        <ele>2.06</ele>
        <time>2016-08-26T13:52:02Z</time>
      </trkpt>
      <trkpt lat="47.6037" lon="-2.95401">
        <ele>1.58</ele>
        <time>2016-08-26T13:52:30Z</time>
      </trkpt>
      <trkpt lat="47.60316" lon="-2.95397">
        <ele>1.58</ele>
        <time>2016-08-26T13:53:00Z</time>
      </trkpt>
      <trkpt lat="47.60275" lon="-2.95397">
        <ele>1.1</ele>
        <time>2016-08-26T13:53:22Z</time>
      </trkpt>
      <trkpt lat="47.60238" lon="-2.95401">
        <ele>1.1</ele>
        <time>2016-08-26T13:53:42Z</time>
      </trkpt>
      <trkpt lat="47.602" lon="-2.95397">
        <ele>2.06</ele>
        <time>2016-08-26T13:54:04Z</time>
      </trkpt>
      <trkpt lat="47.60173" lon="-2.95389">
        <ele>2.06</ele>
        <time>2016-08-26T13:54:20Z</time>
      </trkpt>
      <trkpt lat="47.60143" lon="-2.95375">
        <ele>2.06</ele>
        <time>2016-08-26T13:54:38Z</time>
      </trkpt>
      <trkpt lat="47.60116" lon="-2.95346">
        <ele>1.58</ele>
        <time>2016-08-26T13:54:58Z</time>
      </trkpt>
      <trkpt lat="47.60096" lon="-2.95322">
        <ele>2.06</ele>
        <time>2016-08-26T13:55:15Z</time>
      </trkpt>
      <trkpt lat="47.60073" lon="-2.95293">
        <ele>2.54</ele>
        <time>2016-08-26T13:55:38Z</time>
      </trkpt>
      <trkpt lat="47.60051" lon="-2.95265">
        <ele>2.06</ele>
        <time>2016-08-26T13:55:58Z</time>
      </trkpt>
      <trkpt lat="47.6003" lon="-2.95234">
        <ele>2.54</ele>
        <time>2016-08-26T13:56:18Z</time>
      </trkpt>
      <trkpt lat="47.6" lon="-2.95188">
        <ele>1.1</ele>
        <time>2016-08-26T13:56:46Z</time>
      </trkpt>
      <trkpt lat="47.59978" lon="-2.9515">
        <ele>1.58</ele>
        <time>2016-08-26T13:57:04Z</time>
      </trkpt>
      <trkpt lat="47.59956" lon="-2.95117">
        <ele>2.54</ele>
        <time>2016-08-26T13:57:23Z</time>
      </trkpt>
      <trkpt lat="47.59937" lon="-2.95085">
        <ele>1.1</ele>
        <time>2016-08-26T13:57:41Z</time>
      </trkpt>
      <trkpt lat="47.59909" lon="-2.95043">
        <ele>1.1</ele>
        <time>2016-08-26T13:58:08Z</time>
      </trkpt>
      <trkpt lat="47.59893" lon="-2.95025">
        <ele>2.06</ele>
        <time>2016-08-26T13:58:25Z</time>
      </trkpt>
      <trkpt lat="47.59874" lon="-2.95006">
        <ele>1.58</ele>
        <time>2016-08-26T13:58:49Z</time>
      </trkpt>
      <trkpt lat="47.59863" lon="-2.94995">
        <ele>0.62</ele>
        <time>2016-08-26T13:59:04Z</time>
      </trkpt>
      <trkpt lat="47.59844" lon="-2.94976">
        <ele>0.62</ele>
        <time>2016-08-26T13:59:29Z</time>
      </trkpt>
      <trkpt lat="47.59819" lon="-2.94948">
        <ele>2.06</ele>
        <time>2016-08-26T13:59:51Z</time>
      </trkpt>
      <trkpt lat="47.59798" lon="-2.94927">
        <ele>2.54</ele>
        <time>2016-08-26T14:00:06Z</time>
      </trkpt>
      <trkpt lat="47.59777" lon="-2.94904">
        <ele>2.54</ele>
        <time>2016-08-26T14:00:20Z</time>
      </trkpt>
      <trkpt lat="47.59753" lon="-2.94876">
        <ele>2.06</ele>
        <time>2016-08-26T14:00:33Z</time>
      </trkpt>
      <trkpt lat="47.59731" lon="-2.94854">
        <ele>0.14</ele>
        <time>2016-08-26T14:00:43Z</time>
      </trkpt>
      <trkpt lat="47.59705" lon="-2.94832">
        <ele>0.62</ele>
        <time>2016-08-26T14:00:55Z</time>
      </trkpt>
      <trkpt lat="47.59674" lon="-2.94807">
        <ele>1.58</ele>
        <time>2016-08-26T14:01:09Z</time>
      </trkpt>
      <trkpt lat="47.59637" lon="-2.94766">
        <ele>1.58</ele>
        <time>2016-08-26T14:01:26Z</time>
      </trkpt>
      <trkpt lat="47.5959" lon="-2.94724">
        <ele>2.06</ele>
        <time>2016-08-26T14:01:47Z</time>
      </trkpt>
      <trkpt lat="47.59554" lon="-2.94685">
        <ele>2.06</ele>
        <time>2016-08-26T14:02:07Z</time>
      </trkpt>
      <trkpt lat="47.59504" lon="-2.94636">
        <ele>3.98</ele>
        <time>2016-08-26T14:02:35Z</time>
      </trkpt>
      <trkpt lat="47.59468" lon="-2.94606">
        <ele>5.42</ele>
        <time>2016-08-26T14:02:59Z</time>
      </trkpt>
      <trkpt lat="47.59428" lon="-2.94569">
        <ele>7.35</ele>
        <time>2016-08-26T14:03:30Z</time>
      </trkpt>
      <trkpt lat="47.59386" lon="-2.94543">
        <ele>9.27</ele>
        <time>2016-08-26T14:03:58Z</time>
      </trkpt>
      <trkpt lat="47.59361" lon="-2.94527">
        <ele>3.02</ele>
        <time>2016-08-26T14:04:24Z</time>
      </trkpt>
      <trkpt lat="47.59327" lon="-2.94504">
        <ele>2.06</ele>
        <time>2016-08-26T14:04:51Z</time>
      </trkpt>
      <trkpt lat="47.59292" lon="-2.94473">
        <ele>2.06</ele>
        <time>2016-08-26T14:05:10Z</time>
      </trkpt>
      <trkpt lat="47.5924" lon="-2.94443">
        <ele>2.06</ele>
        <time>2016-08-26T14:05:39Z</time>
      </trkpt>
      <trkpt lat="47.59211" lon="-2.94429">
        <ele>1.58</ele>
        <time>2016-08-26T14:05:56Z</time>
      </trkpt>
      <trkpt lat="47.59177" lon="-2.94413">
        <ele>2.54</ele>
        <time>2016-08-26T14:06:14Z</time>
      </trkpt>
      <trkpt lat="47.59131" lon="-2.9439">
        <ele>3.02</ele>
        <time>2016-08-26T14:06:36Z</time>
      </trkpt>
      <trkpt lat="47.59094" lon="-2.94369">
        <ele>3.02</ele>
        <time>2016-08-26T14:06:56Z</time>
      </trkpt>
      <trkpt lat="47.59048" lon="-2.94343">
        <ele>2.54</ele>
        <time>2016-08-26T14:07:24Z</time>
      </trkpt>
      <trkpt lat="47.58989" lon="-2.94307">
        <ele>2.54</ele>
        <time>2016-08-26T14:07:55Z</time>
      </trkpt>
      <trkpt lat="47.58949" lon="-2.94283">
        <ele>2.06</ele>
        <time>2016-08-26T14:08:18Z</time>
      </trkpt>
      <trkpt lat="47.58892" lon="-2.94251">
        <ele>2.06</ele>
        <time>2016-08-26T14:08:50Z</time>
      </trkpt>
      <trkpt lat="47.58833" lon="-2.94211">
        <ele>2.06</ele>
        <time>2016-08-26T14:09:20Z</time>
      </trkpt>
      <trkpt lat="47.58789" lon="-2.94175">
        <ele>2.06</ele>
        <time>2016-08-26T14:09:41Z</time>
      </trkpt>
      <trkpt lat="47.58732" lon="-2.94125">
        <ele>0.62</ele>
        <time>2016-08-26T14:10:08Z</time>
      </trkpt>
      <trkpt lat="47.58689" lon="-2.9409">
        <ele>0.62</ele>
        <time>2016-08-26T14:10:34Z</time>
      </trkpt>
      <trkpt lat="47.58657" lon="-2.94067">
        <ele>0.62</ele>
        <time>2016-08-26T14:10:54Z</time>
      </trkpt>
      <trkpt lat="47.58622" lon="-2.94038">
        <ele>1.58</ele>
        <time>2016-08-26T14:11:16Z</time>
      </trkpt>
      <trkpt lat="47.58582" lon="-2.93994">
        <ele>0.62</ele>
        <time>2016-08-26T14:11:44Z</time>
      </trkpt>
      <trkpt lat="47.58556" lon="-2.9396">
        <ele>0.62</ele>
        <time>2016-08-26T14:12:06Z</time>
      </trkpt>
      <trkpt lat="47.58533" lon="-2.93926">
        <ele>0.14</ele>
        <time>2016-08-26T14:12:29Z</time>
      </trkpt>
      <trkpt lat="47.58511" lon="-2.93889">
        <ele>2.06</ele>
        <time>2016-08-26T14:12:55Z</time>
      </trkpt>
      <trkpt lat="47.58498" lon="-2.93865">
        <ele>1.58</ele>
        <time>2016-08-26T14:13:13Z</time>
      </trkpt>
      <trkpt lat="47.58486" lon="-2.9383">
        <ele>1.58</ele>
        <time>2016-08-26T14:13:40Z</time>
      </trkpt>
      <trkpt lat="47.58472" lon="-2.9379">
        <ele>-0.82</ele>
        <time>2016-08-26T14:14:04Z</time>
      </trkpt>
      <trkpt lat="47.58446" lon="-2.93737">
        <ele>-0.34</ele>
        <time>2016-08-26T14:14:34Z</time>
      </trkpt>
      <trkpt lat="47.58428" lon="-2.93697">
        <ele>-1.79</ele>
        <time>2016-08-26T14:14:57Z</time>
      </trkpt>
      <trkpt lat="47.58406" lon="-2.93656">
        <ele>-1.79</ele>
        <time>2016-08-26T14:15:24Z</time>
      </trkpt>
      <trkpt lat="47.58402" lon="-2.9365">
        <ele>-1.79</ele>
        <time>2016-08-26T14:15:28Z</time>
      </trkpt>
      <trkpt lat="47.58381" lon="-2.93615">
        <ele>-0.34</ele>
        <time>2016-08-26T14:15:47Z</time>
      </trkpt>
      <trkpt lat="47.58362" lon="-2.93583">
        <ele>1.58</ele>
        <time>2016-08-26T14:16:03Z</time>
      </trkpt>
      <trkpt lat="47.5833" lon="-2.93537">
        <ele>0.62</ele>
        <time>2016-08-26T14:16:28Z</time>
      </trkpt>
      <trkpt lat="47.58295" lon="-2.93492">
        <ele>-0.82</ele>
        <time>2016-08-26T14:16:48Z</time>
      </trkpt>
      <trkpt lat="47.58245" lon="-2.93454">
        <ele>-0.82</ele>
        <time>2016-08-26T14:17:10Z</time>
      </trkpt>
      <trkpt lat="47.5821" lon="-2.93426">
        <ele>-0.34</ele>
        <time>2016-08-26T14:17:26Z</time>
      </trkpt>
      <trkpt lat="47.58179" lon="-2.93411">
        <ele>-0.82</ele>
        <time>2016-08-26T14:17:41Z</time>
      </trkpt>
      <trkpt lat="47.58171" lon="-2.93408">
        <ele>-0.34</ele>
        <time>2016-08-26T14:17:46Z</time>
      </trkpt>
      <trkpt lat="47.58132" lon="-2.93393">
        <ele>-0.82</ele>
        <time>2016-08-26T14:18:10Z</time>
      </trkpt>
      <trkpt lat="47.58095" lon="-2.93379">
        <ele>-0.34</ele>
        <time>2016-08-26T14:18:27Z</time>
      </trkpt>
      <trkpt lat="47.58046" lon="-2.93366">
        <ele>2.06</ele>
        <time>2016-08-26T14:18:48Z</time>
      </trkpt>
      <trkpt lat="47.58004" lon="-2.93361">
        <ele>1.58</ele>
        <time>2016-08-26T14:19:11Z</time>
      </trkpt>
      <trkpt lat="47.57967" lon="-2.93351">
        <ele>1.58</ele>
        <time>2016-08-26T14:19:37Z</time>
      </trkpt>
      <trkpt lat="47.57948" lon="-2.93345">
        <ele>1.1</ele>
        <time>2016-08-26T14:19:53Z</time>
      </trkpt>
      <trkpt lat="47.57925" lon="-2.93338">
        <ele>1.58</ele>
        <time>2016-08-26T14:20:16Z</time>
      </trkpt>
      <trkpt lat="47.57903" lon="-2.93329">
        <ele>2.54</ele>
        <time>2016-08-26T14:20:37Z</time>
      </trkpt>
      <trkpt lat="47.5788" lon="-2.93323">
        <ele>1.58</ele>
        <time>2016-08-26T14:20:58Z</time>
      </trkpt>
      <trkpt lat="47.57858" lon="-2.93315">
        <ele>1.58</ele>
        <time>2016-08-26T14:21:21Z</time>
      </trkpt>
      <trkpt lat="47.57838" lon="-2.93307">
        <ele>1.58</ele>
        <time>2016-08-26T14:21:40Z</time>
      </trkpt>
      <trkpt lat="47.57816" lon="-2.933">
        <ele>3.02</ele>
        <time>2016-08-26T14:22:07Z</time>
      </trkpt>
      <trkpt lat="47.57797" lon="-2.93304">
        <ele>3.98</ele>
        <time>2016-08-26T14:22:30Z</time>
      </trkpt>
      <trkpt lat="47.57771" lon="-2.933">
        <ele>3.5</ele>
        <time>2016-08-26T14:22:58Z</time>
      </trkpt>
      <trkpt lat="47.57742" lon="-2.93298">
        <ele>3.5</ele>
        <time>2016-08-26T14:23:20Z</time>
      </trkpt>
      <trkpt lat="47.57705" lon="-2.93287">
        <ele>2.54</ele>
        <time>2016-08-26T14:23:43Z</time>
      </trkpt>
      <trkpt lat="47.57669" lon="-2.93273">
        <ele>2.54</ele>
        <time>2016-08-26T14:24:01Z</time>
      </trkpt>
      <trkpt lat="47.57633" lon="-2.93252">
        <ele>3.02</ele>
        <time>2016-08-26T14:24:20Z</time>
      </trkpt>
      <trkpt lat="47.57607" lon="-2.93233">
        <ele>3.02</ele>
        <time>2016-08-26T14:24:36Z</time>
      </trkpt>
      <trkpt lat="47.57572" lon="-2.93209">
        <ele>3.02</ele>
        <time>2016-08-26T14:24:58Z</time>
      </trkpt>
      <trkpt lat="47.5754" lon="-2.93182">
        <ele>2.54</ele>
        <time>2016-08-26T14:25:20Z</time>
      </trkpt>
      <trkpt lat="47.57522" lon="-2.93163">
        <ele>0.62</ele>
        <time>2016-08-26T14:25:33Z</time>
      </trkpt>
      <trkpt lat="47.57496" lon="-2.93139">
        <ele>0.62</ele>
        <time>2016-08-26T14:25:50Z</time>
      </trkpt>
      <trkpt lat="47.5746" lon="-2.93106">
        <ele>1.1</ele>
        <time>2016-08-26T14:26:12Z</time>
      </trkpt>
      <trkpt lat="47.5743" lon="-2.93078">
        <ele>1.58</ele>
        <time>2016-08-26T14:26:32Z</time>
      </trkpt>
      <trkpt lat="47.57393" lon="-2.93039">
        <ele>1.1</ele>
        <time>2016-08-26T14:26:56Z</time>
      </trkpt>
      <trkpt lat="47.57358" lon="-2.93003">
        <ele>1.1</ele>
        <time>2016-08-26T14:27:17Z</time>
      </trkpt>
      <trkpt lat="47.57333" lon="-2.92977">
        <ele>1.58</ele>
        <time>2016-08-26T14:27:32Z</time>
      </trkpt>
      <trkpt lat="47.57298" lon="-2.92944">
        <ele>2.06</ele>
        <time>2016-08-26T14:27:52Z</time>
      </trkpt>
      <trkpt lat="47.57261" lon="-2.92902">
        <ele>1.58</ele>
        <time>2016-08-26T14:28:13Z</time>
      </trkpt>
      <trkpt lat="47.57228" lon="-2.92865">
        <ele>2.54</ele>
        <time>2016-08-26T14:28:32Z</time>
      </trkpt>
      <trkpt lat="47.5719" lon="-2.92822">
        <ele>2.54</ele>
        <time>2016-08-26T14:28:55Z</time>
      </trkpt>
      <trkpt lat="47.57159" lon="-2.92787">
        <ele>1.1</ele>
        <time>2016-08-26T14:29:15Z</time>
      </trkpt>
      <trkpt lat="47.57128" lon="-2.92751">
        <ele>1.58</ele>
        <time>2016-08-26T14:29:36Z</time>
      </trkpt>
      <trkpt lat="47.57101" lon="-2.92731">
        <ele>2.06</ele>
        <time>2016-08-26T14:29:54Z</time>
      </trkpt>
      <trkpt lat="47.5708" lon="-2.92715">
        <ele>1.58</ele>
        <time>2016-08-26T14:30:08Z</time>
      </trkpt>
      <trkpt lat="47.5705" lon="-2.92691">
        <ele>1.1</ele>
        <time>2016-08-26T14:30:27Z</time>
      </trkpt>
      <trkpt lat="47.57019" lon="-2.92672">
        <ele>1.58</ele>
        <time>2016-08-26T14:30:42Z</time>
      </trkpt>
      <trkpt lat="47.57009" lon="-2.92664">
        <ele>1.58</ele>
        <time>2016-08-26T14:30:47Z</time>
      </trkpt>
      <trkpt lat="47.56996" lon="-2.92654">
        <ele>1.58</ele>
        <time>2016-08-26T14:30:54Z</time>
      </trkpt>
      <trkpt lat="47.56988" lon="-2.9265">
        <ele>1.58</ele>
        <time>2016-08-26T14:30:58Z</time>
      </trkpt>
      <trkpt lat="47.5698" lon="-2.92643">
        <ele>2.54</ele>
        <time>2016-08-26T14:31:03Z</time>
      </trkpt>
      <trkpt lat="47.5695" lon="-2.92616">
        <ele>1.58</ele>
        <time>2016-08-26T14:31:21Z</time>
      </trkpt>
      <trkpt lat="47.56922" lon="-2.92595">
        <ele>2.06</ele>
        <time>2016-08-26T14:31:38Z</time>
      </trkpt>
      <trkpt lat="47.56886" lon="-2.92567">
        <ele>2.06</ele>
        <time>2016-08-26T14:32:01Z</time>
      </trkpt>
      <trkpt lat="47.56861" lon="-2.92546">
        <ele>1.58</ele>
        <time>2016-08-26T14:32:17Z</time>
      </trkpt>
      <trkpt lat="47.56839" lon="-2.92531">
        <ele>1.58</ele>
        <time>2016-08-26T14:32:30Z</time>
      </trkpt>
      <trkpt lat="47.56811" lon="-2.92511">
        <ele>1.58</ele>
        <time>2016-08-26T14:32:47Z</time>
      </trkpt>
      <trkpt lat="47.56781" lon="-2.9249">
        <ele>2.06</ele>
        <time>2016-08-26T14:33:06Z</time>
      </trkpt>
      <trkpt lat="47.56776" lon="-2.92487">
        <ele>1.58</ele>
        <time>2016-08-26T14:33:09Z</time>
      </trkpt>
      <trkpt lat="47.5674" lon="-2.92464">
        <ele>1.1</ele>
        <time>2016-08-26T14:33:31Z</time>
      </trkpt>
      <trkpt lat="47.56715" lon="-2.92443">
        <ele>0.62</ele>
        <time>2016-08-26T14:33:45Z</time>
      </trkpt>
      <trkpt lat="47.56676" lon="-2.92413">
        <ele>0.62</ele>
        <time>2016-08-26T14:34:05Z</time>
      </trkpt>
      <trkpt lat="47.56645" lon="-2.92392">
        <ele>0.62</ele>
        <time>2016-08-26T14:34:22Z</time>
      </trkpt>
      <trkpt lat="47.56613" lon="-2.9237">
        <ele>0.62</ele>
        <time>2016-08-26T14:34:40Z</time>
      </trkpt>
      <trkpt lat="47.56575" lon="-2.92348">
        <ele>1.1</ele>
        <time>2016-08-26T14:34:59Z</time>
      </trkpt>
      <trkpt lat="47.56543" lon="-2.92334">
        <ele>1.58</ele>
        <time>2016-08-26T14:35:16Z</time>
      </trkpt>
      <trkpt lat="47.56519" lon="-2.92326">
        <ele>1.58</ele>
        <time>2016-08-26T14:35:30Z</time>
      </trkpt>
      <trkpt lat="47.56512" lon="-2.92324">
        <ele>1.58</ele>
        <time>2016-08-26T14:35:34Z</time>
      </trkpt>
      <trkpt lat="47.56491" lon="-2.92314">
        <ele>1.1</ele>
        <time>2016-08-26T14:35:46Z</time>
      </trkpt>
      <trkpt lat="47.5646" lon="-2.92302">
        <ele>1.1</ele>
        <time>2016-08-26T14:36:03Z</time>
      </trkpt>
      <trkpt lat="47.56429" lon="-2.92282">
        <ele>1.1</ele>
        <time>2016-08-26T14:36:18Z</time>
      </trkpt>
      <trkpt lat="47.56377" lon="-2.92253">
        <ele>1.1</ele>
        <time>2016-08-26T14:36:40Z</time>
      </trkpt>
      <trkpt lat="47.56321" lon="-2.92225">
        <ele>0.62</ele>
        <time>2016-08-26T14:37:03Z</time>
      </trkpt>
      <trkpt lat="47.56281" lon="-2.92205">
        <ele>0.62</ele>
        <time>2016-08-26T14:37:20Z</time>
      </trkpt>
      <trkpt lat="47.56232" lon="-2.92193">
        <ele>0.62</ele>
        <time>2016-08-26T14:37:43Z</time>
      </trkpt>
      <trkpt lat="47.56197" lon="-2.92188">
        <ele>1.1</ele>
        <time>2016-08-26T14:37:59Z</time>
      </trkpt>
      <trkpt lat="47.56142" lon="-2.9218">
        <ele>0.62</ele>
        <time>2016-08-26T14:38:22Z</time>
      </trkpt>
      <trkpt lat="47.56104" lon="-2.92167">
        <ele>-0.82</ele>
        <time>2016-08-26T14:38:37Z</time>
      </trkpt>
      <trkpt lat="47.56042" lon="-2.92152">
        <ele>-0.34</ele>
        <time>2016-08-26T14:39:01Z</time>
      </trkpt>
      <trkpt lat="47.55994" lon="-2.92142">
        <ele>0.14</ele>
        <time>2016-08-26T14:39:18Z</time>
      </trkpt>
      <trkpt lat="47.5594" lon="-2.92134">
        <ele>1.1</ele>
        <time>2016-08-26T14:39:35Z</time>
      </trkpt>
      <trkpt lat="47.55877" lon="-2.92131">
        <ele>1.1</ele>
        <time>2016-08-26T14:39:54Z</time>
      </trkpt>
      <trkpt lat="47.55817" lon="-2.92124">
        <ele>1.58</ele>
        <time>2016-08-26T14:40:13Z</time>
      </trkpt>
      <trkpt lat="47.55776" lon="-2.92125">
        <ele>0.62</ele>
        <time>2016-08-26T14:40:27Z</time>
      </trkpt>
      <trkpt lat="47.55733" lon="-2.92125">
        <ele>1.58</ele>
        <time>2016-08-26T14:40:43Z</time>
      </trkpt>
      <trkpt lat="47.55693" lon="-2.92125">
        <ele>1.1</ele>
        <time>2016-08-26T14:40:59Z</time>
      </trkpt>
      <trkpt lat="47.5564" lon="-2.92135">
        <ele>1.1</ele>
        <time>2016-08-26T14:41:20Z</time>
      </trkpt>
      <trkpt lat="47.55606" lon="-2.92143">
        <ele>1.1</ele>
        <time>2016-08-26T14:41:33Z</time>
      </trkpt>
      <trkpt lat="47.55569" lon="-2.92152">
        <ele>1.58</ele>
        <time>2016-08-26T14:41:48Z</time>
      </trkpt>
      <trkpt lat="47.55535" lon="-2.92165">
        <ele>1.1</ele>
        <time>2016-08-26T14:42:03Z</time>
      </trkpt>
      <trkpt lat="47.55496" lon="-2.9218">
        <ele>1.1</ele>
        <time>2016-08-26T14:42:22Z</time>
      </trkpt>
      <trkpt lat="47.55442" lon="-2.92207">
        <ele>0.62</ele>
        <time>2016-08-26T14:42:48Z</time>
      </trkpt>
      <trkpt lat="47.55395" lon="-2.92235">
        <ele>1.1</ele>
        <time>2016-08-26T14:43:11Z</time>
      </trkpt>
      <trkpt lat="47.55365" lon="-2.92246">
        <ele>0.14</ele>
        <time>2016-08-26T14:43:24Z</time>
      </trkpt>
      <trkpt lat="47.55336" lon="-2.92256">
        <ele>0.14</ele>
        <time>2016-08-26T14:43:37Z</time>
      </trkpt>
      <trkpt lat="47.55306" lon="-2.92261">
        <ele>-0.82</ele>
        <time>2016-08-26T14:43:51Z</time>
      </trkpt>
      <trkpt lat="47.55276" lon="-2.92262">
        <ele>-0.82</ele>
        <time>2016-08-26T14:44:04Z</time>
      </trkpt>
      <trkpt lat="47.55248" lon="-2.92261">
        <ele>-0.34</ele>
        <time>2016-08-26T14:44:16Z</time>
      </trkpt>
      <trkpt lat="47.55209" lon="-2.9226">
        <ele>-0.82</ele>
        <time>2016-08-26T14:44:32Z</time>
      </trkpt>
      <trkpt lat="47.55177" lon="-2.92259">
        <ele>0.14</ele>
        <time>2016-08-26T14:44:44Z</time>
      </trkpt>
      <trkpt lat="47.55115" lon="-2.92259">
        <ele>0.62</ele>
        <time>2016-08-26T14:45:05Z</time>
      </trkpt>
      <trkpt lat="47.55071" lon="-2.92265">
        <ele>-0.82</ele>
        <time>2016-08-26T14:45:19Z</time>
      </trkpt>
      <trkpt lat="47.5503" lon="-2.92269">
        <ele>-0.82</ele>
        <time>2016-08-26T14:45:33Z</time>
      </trkpt>
      <trkpt lat="47.54989" lon="-2.92276">
        <ele>-0.34</ele>
        <time>2016-08-26T14:45:48Z</time>
      </trkpt>
      <trkpt lat="47.54942" lon="-2.92281">
        <ele>0.14</ele>
        <time>2016-08-26T14:46:04Z</time>
      </trkpt>
      <trkpt lat="47.54884" lon="-2.92285">
        <ele>-0.34</ele>
        <time>2016-08-26T14:46:23Z</time>
      </trkpt>
      <trkpt lat="47.54834" lon="-2.92286">
        <ele>-0.82</ele>
        <time>2016-08-26T14:46:40Z</time>
      </trkpt>
      <trkpt lat="47.54785" lon="-2.92289">
        <ele>-0.34</ele>
        <time>2016-08-26T14:46:57Z</time>
      </trkpt>
      <trkpt lat="47.5473" lon="-2.923">
        <ele>-0.82</ele>
        <time>2016-08-26T14:47:16Z</time>
      </trkpt>
      <trkpt lat="47.54674" lon="-2.92312">
        <ele>0.62</ele>
        <time>2016-08-26T14:47:36Z</time>
      </trkpt>
      <trkpt lat="47.54613" lon="-2.92324">
        <ele>0.14</ele>
        <time>2016-08-26T14:47:56Z</time>
      </trkpt>
      <trkpt lat="47.54558" lon="-2.92333">
        <ele>0.14</ele>
        <time>2016-08-26T14:48:12Z</time>
      </trkpt>
      <trkpt lat="47.54503" lon="-2.92337">
        <ele>-0.34</ele>
        <time>2016-08-26T14:48:27Z</time>
      </trkpt>
      <trkpt lat="47.54452" lon="-2.92336">
        <ele>-0.34</ele>
        <time>2016-08-26T14:48:41Z</time>
      </trkpt>
      <trkpt lat="47.54391" lon="-2.92327">
        <ele>0.14</ele>
        <time>2016-08-26T14:48:58Z</time>
      </trkpt>
      <trkpt lat="47.54357" lon="-2.92314">
        <ele>0.62</ele>
        <time>2016-08-26T14:49:08Z</time>
      </trkpt>
      <trkpt lat="47.543" lon="-2.92291">
        <ele>0.62</ele>
        <time>2016-08-26T14:49:24Z</time>
      </trkpt>
      <trkpt lat="47.54255" lon="-2.92295">
        <ele>-0.34</ele>
        <time>2016-08-26T14:49:39Z</time>
      </trkpt>
      <trkpt lat="47.54219" lon="-2.92305">
        <ele>-0.34</ele>
        <time>2016-08-26T14:49:55Z</time>
      </trkpt>
      <trkpt lat="47.54182" lon="-2.92311">
        <ele>0.62</ele>
        <time>2016-08-26T14:50:11Z</time>
      </trkpt>
      <trkpt lat="47.5414" lon="-2.92312">
        <ele>0.14</ele>
        <time>2016-08-26T14:50:27Z</time>
      </trkpt>
      <trkpt lat="47.54107" lon="-2.92313">
        <ele>-0.82</ele>
        <time>2016-08-26T14:50:40Z</time>
      </trkpt>
      <trkpt lat="47.54079" lon="-2.92314">
        <ele>-0.34</ele>
        <time>2016-08-26T14:50:53Z</time>
      </trkpt>
      <trkpt lat="47.5404" lon="-2.92312">
        <ele>0.14</ele>
        <time>2016-08-26T14:51:11Z</time>
      </trkpt>
      <trkpt lat="47.54036" lon="-2.92312">
        <ele>0.14</ele>
        <time>2016-08-26T14:51:13Z</time>
      </trkpt>
      <trkpt lat="47.54014" lon="-2.92311">
        <ele>0.62</ele>
        <time>2016-08-26T14:51:25Z</time>
      </trkpt>
      <trkpt lat="47.5399" lon="-2.92312">
        <ele>0.62</ele>
        <time>2016-08-26T14:51:38Z</time>
      </trkpt>
      <trkpt lat="47.53957" lon="-2.92315">
        <ele>0.62</ele>
        <time>2016-08-26T14:51:57Z</time>
      </trkpt>
      <trkpt lat="47.53926" lon="-2.92321">
        <ele>0.14</ele>
        <time>2016-08-26T14:52:13Z</time>
      </trkpt>
      <trkpt lat="47.539" lon="-2.92321">
        <ele>-2.75</ele>
        <time>2016-08-26T14:52:25Z</time>
      </trkpt>
      <trkpt lat="47.53864" lon="-2.92325">
        <ele>-2.27</ele>
        <time>2016-08-26T14:52:41Z</time>
      </trkpt>
      <trkpt lat="47.53826" lon="-2.92322">
        <ele>-2.27</ele>
        <time>2016-08-26T14:52:57Z</time>
      </trkpt>
      <trkpt lat="47.53792" lon="-2.92323">
        <ele>-1.3</ele>
        <time>2016-08-26T14:53:11Z</time>
      </trkpt>
      <trkpt lat="47.53757" lon="-2.92331">
        <ele>-0.82</ele>
        <time>2016-08-26T14:53:28Z</time>
      </trkpt>
      <trkpt lat="47.53724" lon="-2.92334">
        <ele>-0.34</ele>
        <time>2016-08-26T14:53:44Z</time>
      </trkpt>
      <trkpt lat="47.5367" lon="-2.92327">
        <ele>-0.82</ele>
        <time>2016-08-26T14:54:07Z</time>
      </trkpt>
      <trkpt lat="47.53632" lon="-2.92324">
        <ele>0.14</ele>
        <time>2016-08-26T14:54:22Z</time>
      </trkpt>
      <trkpt lat="47.53591" lon="-2.92317">
        <ele>-0.34</ele>
        <time>2016-08-26T14:54:37Z</time>
      </trkpt>
      <trkpt lat="47.53541" lon="-2.92311">
        <ele>-0.82</ele>
        <time>2016-08-26T14:54:55Z</time>
      </trkpt>
      <trkpt lat="47.53499" lon="-2.92307">
        <ele>-0.82</ele>
        <time>2016-08-26T14:55:10Z</time>
      </trkpt>
      <trkpt lat="47.53454" lon="-2.92301">
        <ele>-0.82</ele>
        <time>2016-08-26T14:55:27Z</time>
      </trkpt>
      <trkpt lat="47.53429" lon="-2.92313">
        <ele>-1.3</ele>
        <time>2016-08-26T14:55:42Z</time>
      </trkpt>
      <trkpt lat="47.53412" lon="-2.92319">
        <ele>-1.79</ele>
        <time>2016-08-26T14:55:54Z</time>
      </trkpt>
      <trkpt lat="47.53399" lon="-2.9232">
        <ele>-1.3</ele>
        <time>2016-08-26T14:56:04Z</time>
      </trkpt>
      <trkpt lat="47.5337" lon="-2.92325">
        <ele>1.1</ele>
        <time>2016-08-26T14:56:21Z</time>
      </trkpt>
      <trkpt lat="47.53337" lon="-2.92329">
        <ele>1.1</ele>
        <time>2016-08-26T14:56:36Z</time>
      </trkpt>
      <trkpt lat="47.53306" lon="-2.92341">
        <ele>0.62</ele>
        <time>2016-08-26T14:56:54Z</time>
      </trkpt>
      <trkpt lat="47.53291" lon="-2.92353">
        <ele>-0.34</ele>
        <time>2016-08-26T14:57:06Z</time>
      </trkpt>
      <trkpt lat="47.53273" lon="-2.9237">
        <ele>0.14</ele>
        <time>2016-08-26T14:57:23Z</time>
      </trkpt>
      <trkpt lat="47.53254" lon="-2.92384">
        <ele>-0.82</ele>
        <time>2016-08-26T14:57:40Z</time>
      </trkpt>
      <trkpt lat="47.53238" lon="-2.92393">
        <ele>0.14</ele>
        <time>2016-08-26T14:57:56Z</time>
      </trkpt>
      <trkpt lat="47.53217" lon="-2.92406">
        <ele>-0.34</ele>
        <time>2016-08-26T14:58:16Z</time>
      </trkpt>
      <trkpt lat="47.53197" lon="-2.92416">
        <ele>0.14</ele>
        <time>2016-08-26T14:58:33Z</time>
      </trkpt>
      <trkpt lat="47.53175" lon="-2.92431">
        <ele>0.14</ele>
        <time>2016-08-26T14:58:51Z</time>
      </trkpt>
      <trkpt lat="47.53166" lon="-2.92439">
        <ele>-0.34</ele>
        <time>2016-08-26T14:58:59Z</time>
      </trkpt>
      <trkpt lat="47.53148" lon="-2.92451">
        <ele>-0.82</ele>
        <time>2016-08-26T14:59:17Z</time>
      </trkpt>
      <trkpt lat="47.53134" lon="-2.92464">
        <ele>-0.82</ele>
        <time>2016-08-26T14:59:34Z</time>
      </trkpt>
      <trkpt lat="47.53128" lon="-2.92468">
        <ele>-1.79</ele>
        <time>2016-08-26T14:59:40Z</time>
      </trkpt>
      <trkpt lat="47.53104" lon="-2.92486">
        <ele>-3.23</ele>
        <time>2016-08-26T15:00:00Z</time>
      </trkpt>
      <trkpt lat="47.53078" lon="-2.92503">
        <ele>-3.71</ele>
        <time>2016-08-26T15:00:22Z</time>
      </trkpt>
      <trkpt lat="47.53058" lon="-2.92517">
        <ele>-5.15</ele>
        <time>2016-08-26T15:00:39Z</time>
      </trkpt>
      <trkpt lat="47.53039" lon="-2.9253">
        <ele>-3.23</ele>
        <time>2016-08-26T15:00:56Z</time>
      </trkpt>
      <trkpt lat="47.53035" lon="-2.92532">
        <ele>-3.23</ele>
        <time>2016-08-26T15:00:59Z</time>
      </trkpt>
      <trkpt lat="47.53017" lon="-2.92543">
        <ele>-2.27</ele>
        <time>2016-08-26T15:01:14Z</time>
      </trkpt>
      <trkpt lat="47.53016" lon="-2.92544">
        <ele>-1.79</ele>
        <time>2016-08-26T15:01:15Z</time>
      </trkpt>
      <trkpt lat="47.53011" lon="-2.92547">
        <ele>-1.79</ele>
        <time>2016-08-26T15:01:20Z</time>
      </trkpt>
      <trkpt lat="47.52993" lon="-2.92558">
        <ele>-1.79</ele>
        <time>2016-08-26T15:01:36Z</time>
      </trkpt>
      <trkpt lat="47.5299" lon="-2.9256">
        <ele>-1.3</ele>
        <time>2016-08-26T15:01:39Z</time>
      </trkpt>
      <trkpt lat="47.52974" lon="-2.92573">
        <ele>-0.34</ele>
        <time>2016-08-26T15:01:55Z</time>
      </trkpt>
      <trkpt lat="47.52958" lon="-2.92587">
        <ele>0.14</ele>
        <time>2016-08-26T15:02:13Z</time>
      </trkpt>
      <trkpt lat="47.52942" lon="-2.92601">
        <ele>0.62</ele>
        <time>2016-08-26T15:02:31Z</time>
      </trkpt>
      <trkpt lat="47.52926" lon="-2.92617">
        <ele>0.14</ele>
        <time>2016-08-26T15:02:49Z</time>
      </trkpt>
      <trkpt lat="47.52911" lon="-2.9263">
        <ele>-0.34</ele>
        <time>2016-08-26T15:03:05Z</time>
      </trkpt>
      <trkpt lat="47.52903" lon="-2.92638">
        <ele>0.14</ele>
        <time>2016-08-26T15:03:12Z</time>
      </trkpt>
      <trkpt lat="47.52897" lon="-2.92642">
        <ele>-0.34</ele>
        <time>2016-08-26T15:03:17Z</time>
      </trkpt>
      <trkpt lat="47.52874" lon="-2.92664">
        <ele>-0.34</ele>
        <time>2016-08-26T15:03:36Z</time>
      </trkpt>
      <trkpt lat="47.52855" lon="-2.92678">
        <ele>-0.34</ele>
        <time>2016-08-26T15:03:50Z</time>
      </trkpt>
      <trkpt lat="47.52825" lon="-2.92693">
        <ele>-1.3</ele>
        <time>2016-08-26T15:04:09Z</time>
      </trkpt>
      <trkpt lat="47.52795" lon="-2.92721">
        <ele>-1.3</ele>
        <time>2016-08-26T15:04:28Z</time>
      </trkpt>
      <trkpt lat="47.52766" lon="-2.92745">
        <ele>-0.82</ele>
        <time>2016-08-26T15:04:47Z</time>
      </trkpt>
      <trkpt lat="47.52739" lon="-2.92768">
        <ele>-0.34</ele>
        <time>2016-08-26T15:05:06Z</time>
      </trkpt>
      <trkpt lat="47.52721" lon="-2.92786">
        <ele>-1.3</ele>
        <time>2016-08-26T15:05:20Z</time>
      </trkpt>
      <trkpt lat="47.52697" lon="-2.92811">
        <ele>-0.34</ele>
        <time>2016-08-26T15:05:37Z</time>
      </trkpt>
      <trkpt lat="47.52677" lon="-2.92838">
        <ele>-0.34</ele>
        <time>2016-08-26T15:05:55Z</time>
      </trkpt>
      <trkpt lat="47.52664" lon="-2.92853">
        <ele>-0.34</ele>
        <time>2016-08-26T15:06:08Z</time>
      </trkpt>
      <trkpt lat="47.52648" lon="-2.9287">
        <ele>-0.82</ele>
        <time>2016-08-26T15:06:21Z</time>
      </trkpt>
      <trkpt lat="47.52641" lon="-2.92876">
        <ele>-0.34</ele>
        <time>2016-08-26T15:06:26Z</time>
      </trkpt>
      <trkpt lat="47.52636" lon="-2.92882">
        <ele>-0.82</ele>
        <time>2016-08-26T15:06:31Z</time>
      </trkpt>
      <trkpt lat="47.52614" lon="-2.92905">
        <ele>-0.82</ele>
        <time>2016-08-26T15:06:51Z</time>
      </trkpt>
      <trkpt lat="47.52594" lon="-2.92934">
        <ele>-0.34</ele>
        <time>2016-08-26T15:07:12Z</time>
      </trkpt>
      <trkpt lat="47.5258" lon="-2.92952">
        <ele>-0.82</ele>
        <time>2016-08-26T15:07:27Z</time>
      </trkpt>
      <trkpt lat="47.52567" lon="-2.92977">
        <ele>0.14</ele>
        <time>2016-08-26T15:07:44Z</time>
      </trkpt>
      <trkpt lat="47.52566" lon="-2.92985">
        <ele>-0.82</ele>
        <time>2016-08-26T15:07:49Z</time>
      </trkpt>
      <trkpt lat="47.52552" lon="-2.93011">
        <ele>-0.34</ele>
        <time>2016-08-26T15:08:08Z</time>
      </trkpt>
      <trkpt lat="47.52544" lon="-2.93033">
        <ele>1.58</ele>
        <time>2016-08-26T15:08:23Z</time>
      </trkpt>
      <trkpt lat="47.52536" lon="-2.93055">
        <ele>0.62</ele>
        <time>2016-08-26T15:08:40Z</time>
      </trkpt>
      <trkpt lat="47.5253" lon="-2.93076">
        <ele>0.14</ele>
        <time>2016-08-26T15:08:55Z</time>
      </trkpt>
      <trkpt lat="47.52523" lon="-2.931">
        <ele>0.62</ele>
        <time>2016-08-26T15:09:13Z</time>
      </trkpt>
      <trkpt lat="47.52518" lon="-2.93115">
        <ele>0.14</ele>
        <time>2016-08-26T15:09:23Z</time>
      </trkpt>
      <trkpt lat="47.52507" lon="-2.93139">
        <ele>-0.34</ele>
        <time>2016-08-26T15:09:40Z</time>
      </trkpt>
      <trkpt lat="47.52495" lon="-2.93158">
        <ele>0.14</ele>
        <time>2016-08-26T15:09:55Z</time>
      </trkpt>
      <trkpt lat="47.52487" lon="-2.93171">
        <ele>2.06</ele>
        <time>2016-08-26T15:10:05Z</time>
      </trkpt>
      <trkpt lat="47.52476" lon="-2.93187">
        <ele>1.1</ele>
        <time>2016-08-26T15:10:18Z</time>
      </trkpt>
      <trkpt lat="47.52452" lon="-2.93216">
        <ele>-1.3</ele>
        <time>2016-08-26T15:10:42Z</time>
      </trkpt>
      <trkpt lat="47.5243" lon="-2.9325">
        <ele>-2.27</ele>
        <time>2016-08-26T15:11:08Z</time>
      </trkpt>
      <trkpt lat="47.52407" lon="-2.93282">
        <ele>-2.75</ele>
        <time>2016-08-26T15:11:37Z</time>
      </trkpt>
      <trkpt lat="47.52386" lon="-2.93309">
        <ele>-2.27</ele>
        <time>2016-08-26T15:12:02Z</time>
      </trkpt>
      <trkpt lat="47.52375" lon="-2.93326">
        <ele>-1.79</ele>
        <time>2016-08-26T15:12:19Z</time>
      </trkpt>
      <trkpt lat="47.52361" lon="-2.93345">
        <ele>-1.3</ele>
        <time>2016-08-26T15:12:37Z</time>
      </trkpt>
      <trkpt lat="47.52345" lon="-2.93368">
        <ele>-1.3</ele>
        <time>2016-08-26T15:13:00Z</time>
      </trkpt>
      <trkpt lat="47.52331" lon="-2.93392">
        <ele>-1.79</ele>
        <time>2016-08-26T15:13:21Z</time>
      </trkpt>
      <trkpt lat="47.52317" lon="-2.93419">
        <ele>-1.79</ele>
        <time>2016-08-26T15:13:43Z</time>
      </trkpt>
      <trkpt lat="47.52301" lon="-2.93447">
        <ele>-1.79</ele>
        <time>2016-08-26T15:14:06Z</time>
      </trkpt>
      <trkpt lat="47.52286" lon="-2.93474">
        <ele>-1.79</ele>
        <time>2016-08-26T15:14:28Z</time>
      </trkpt>
      <trkpt lat="47.52272" lon="-2.93497">
        <ele>-4.67</ele>
        <time>2016-08-26T15:14:48Z</time>
      </trkpt>
      <trkpt lat="47.52252" lon="-2.93526">
        <ele>-6.11</ele>
        <time>2016-08-26T15:15:18Z</time>
      </trkpt>
      <trkpt lat="47.52241" lon="-2.93545">
        <ele>-3.71</ele>
        <time>2016-08-26T15:15:41Z</time>
      </trkpt>
      <trkpt lat="47.5223" lon="-2.93567">
        <ele>-3.23</ele>
        <time>2016-08-26T15:16:04Z</time>
      </trkpt>
      <trkpt lat="47.52219" lon="-2.93584">
        <ele>-3.23</ele>
        <time>2016-08-26T15:16:23Z</time>
      </trkpt>
      <trkpt lat="47.52205" lon="-2.93602">
        <ele>-3.23</ele>
        <time>2016-08-26T15:16:44Z</time>
      </trkpt>
      <trkpt lat="47.5219" lon="-2.93623">
        <ele>-1.79</ele>
        <time>2016-08-26T15:17:09Z</time>
      </trkpt>
      <trkpt lat="47.52181" lon="-2.9364">
        <ele>-3.23</ele>
        <time>2016-08-26T15:17:27Z</time>
      </trkpt>
      <trkpt lat="47.52176" lon="-2.93653">
        <ele>-2.27</ele>
        <time>2016-08-26T15:17:41Z</time>
      </trkpt>
      <trkpt lat="47.52172" lon="-2.93671">
        <ele>-1.3</ele>
        <time>2016-08-26T15:17:57Z</time>
      </trkpt>
      <trkpt lat="47.52166" lon="-2.93683">
        <ele>-0.82</ele>
        <time>2016-08-26T15:18:09Z</time>
      </trkpt>
      <trkpt lat="47.5216" lon="-2.93689">
        <ele>-1.79</ele>
        <time>2016-08-26T15:18:17Z</time>
      </trkpt>
      <trkpt lat="47.52152" lon="-2.93705">
        <ele>-2.75</ele>
        <time>2016-08-26T15:18:31Z</time>
      </trkpt>
      <trkpt lat="47.52142" lon="-2.93722">
        <ele>-2.75</ele>
        <time>2016-08-26T15:18:47Z</time>
      </trkpt>
      <trkpt lat="47.52128" lon="-2.93744">
        <ele>-1.3</ele>
        <time>2016-08-26T15:19:06Z</time>
      </trkpt>
      <trkpt lat="47.52126" lon="-2.93747">
        <ele>-1.3</ele>
        <time>2016-08-26T15:19:09Z</time>
      </trkpt>
      <trkpt lat="47.52113" lon="-2.93765">
        <ele>-0.34</ele>
        <time>2016-08-26T15:19:26Z</time>
      </trkpt>
      <trkpt lat="47.52094" lon="-2.93791">
        <ele>-0.34</ele>
        <time>2016-08-26T15:19:50Z</time>
      </trkpt>
      <trkpt lat="47.52077" lon="-2.93813">
        <ele>-0.34</ele>
        <time>2016-08-26T15:20:12Z</time>
      </trkpt>
      <trkpt lat="47.52062" lon="-2.93833">
        <ele>-0.34</ele>
        <time>2016-08-26T15:20:32Z</time>
      </trkpt>
      <trkpt lat="47.52043" lon="-2.93853">
        <ele>-1.3</ele>
        <time>2016-08-26T15:20:56Z</time>
      </trkpt>
      <trkpt lat="47.52028" lon="-2.93865">
        <ele>-0.34</ele>
        <time>2016-08-26T15:21:15Z</time>
      </trkpt>
      <trkpt lat="47.52015" lon="-2.9388">
        <ele>-0.82</ele>
        <time>2016-08-26T15:21:38Z</time>
      </trkpt>
      <trkpt lat="47.52004" lon="-2.93893">
        <ele>-0.82</ele>
        <time>2016-08-26T15:22:01Z</time>
      </trkpt>
      <trkpt lat="47.51994" lon="-2.93908">
        <ele>0.14</ele>
        <time>2016-08-26T15:22:28Z</time>
      </trkpt>
      <trkpt lat="47.51985" lon="-2.9392">
        <ele>-0.82</ele>
        <time>2016-08-26T15:22:52Z</time>
      </trkpt>
      <trkpt lat="47.51977" lon="-2.93931">
        <ele>-0.82</ele>
        <time>2016-08-26T15:23:16Z</time>
      </trkpt>
      <trkpt lat="47.51971" lon="-2.93938">
        <ele>-0.82</ele>
        <time>2016-08-26T15:23:33Z</time>
      </trkpt>
      <trkpt lat="47.51963" lon="-2.93947">
        <ele>-1.3</ele>
        <time>2016-08-26T15:23:56Z</time>
      </trkpt>
      <trkpt lat="47.51957" lon="-2.9395">
        <ele>-1.3</ele>
        <time>2016-08-26T15:24:13Z</time>
      </trkpt>
      <trkpt lat="47.51952" lon="-2.93954">
        <ele>-0.82</ele>
        <time>2016-08-26T15:24:28Z</time>
      </trkpt>
      <trkpt lat="47.51948" lon="-2.93957">
        <ele>-0.82</ele>
        <time>2016-08-26T15:24:42Z</time>
      </trkpt>
      <trkpt lat="47.51942" lon="-2.93961">
        <ele>-1.3</ele>
        <time>2016-08-26T15:24:54Z</time>
      </trkpt>
      <trkpt lat="47.51931" lon="-2.93966">
        <ele>-0.82</ele>
        <time>2016-08-26T15:25:12Z</time>
      </trkpt>
      <trkpt lat="47.51922" lon="-2.93974">
        <ele>-0.34</ele>
        <time>2016-08-26T15:25:31Z</time>
      </trkpt>
      <trkpt lat="47.51913" lon="-2.93985">
        <ele>-0.34</ele>
        <time>2016-08-26T15:25:49Z</time>
      </trkpt>
      <trkpt lat="47.51904" lon="-2.93995">
        <ele>0.14</ele>
        <time>2016-08-26T15:26:06Z</time>
      </trkpt>
      <trkpt lat="47.51896" lon="-2.94006">
        <ele>-0.34</ele>
        <time>2016-08-26T15:26:24Z</time>
      </trkpt>
      <trkpt lat="47.51889" lon="-2.94014">
        <ele>-0.34</ele>
        <time>2016-08-26T15:26:40Z</time>
      </trkpt>
      <trkpt lat="47.51882" lon="-2.9402">
        <ele>-0.34</ele>
        <time>2016-08-26T15:26:56Z</time>
      </trkpt>
      <trkpt lat="47.51879" lon="-2.94022">
        <ele>-0.82</ele>
        <time>2016-08-26T15:27:00Z</time>
      </trkpt>
      <trkpt lat="47.51878" lon="-2.94024">
        <ele>-0.82</ele>
        <time>2016-08-26T15:27:02Z</time>
      </trkpt>
      <trkpt lat="47.51871" lon="-2.94031">
        <ele>-1.79</ele>
        <time>2016-08-26T15:27:15Z</time>
      </trkpt>
      <trkpt lat="47.51865" lon="-2.94038">
        <ele>-1.3</ele>
        <time>2016-08-26T15:27:29Z</time>
      </trkpt>
      <trkpt lat="47.51859" lon="-2.94052">
        <ele>-0.34</ele>
        <time>2016-08-26T15:27:47Z</time>
      </trkpt>
      <trkpt lat="47.51855" lon="-2.94063">
        <ele>-0.34</ele>
        <time>2016-08-26T15:27:59Z</time>
      </trkpt>
      <trkpt lat="47.51854" lon="-2.94084">
        <ele>-0.34</ele>
        <time>2016-08-26T15:28:20Z</time>
      </trkpt>
      <trkpt lat="47.51854" lon="-2.94094">
        <ele>-0.34</ele>
        <time>2016-08-26T15:28:29Z</time>
      </trkpt>
      <trkpt lat="47.51855" lon="-2.941">
        <ele>-0.34</ele>
        <time>2016-08-26T15:28:33Z</time>
      </trkpt>
      <trkpt lat="47.51858" lon="-2.94114">
        <ele>0.14</ele>
        <time>2016-08-26T15:28:44Z</time>
      </trkpt>
      <trkpt lat="47.51861" lon="-2.94135">
        <ele>-0.34</ele>
        <time>2016-08-26T15:28:57Z</time>
      </trkpt>
      <trkpt lat="47.51862" lon="-2.94141">
        <ele>0.14</ele>
        <time>2016-08-26T15:29:01Z</time>
      </trkpt>
      <trkpt lat="47.51863" lon="-2.94171">
        <ele>1.58</ele>
        <time>2016-08-26T15:29:17Z</time>
      </trkpt>
      <trkpt lat="47.51865" lon="-2.94205">
        <ele>0.62</ele>
        <time>2016-08-26T15:29:34Z</time>
      </trkpt>
      <trkpt lat="47.51866" lon="-2.94238">
        <ele>2.06</ele>
        <time>2016-08-26T15:29:50Z</time>
      </trkpt>
      <trkpt lat="47.51866" lon="-2.94274">
        <ele>1.1</ele>
        <time>2016-08-26T15:30:06Z</time>
      </trkpt>
      <trkpt lat="47.51862" lon="-2.94312">
        <ele>0.62</ele>
        <time>2016-08-26T15:30:24Z</time>
      </trkpt>
      <trkpt lat="47.51861" lon="-2.94342">
        <ele>0.14</ele>
        <time>2016-08-26T15:30:38Z</time>
      </trkpt>
      <trkpt lat="47.51861" lon="-2.9435">
        <ele>0.14</ele>
        <time>2016-08-26T15:30:42Z</time>
      </trkpt>
      <trkpt lat="47.51861" lon="-2.94359">
        <ele>0.14</ele>
        <time>2016-08-26T15:30:46Z</time>
      </trkpt>
      <trkpt lat="47.51862" lon="-2.94386">
        <ele>2.06</ele>
        <time>2016-08-26T15:30:59Z</time>
      </trkpt>
      <trkpt lat="47.51865" lon="-2.94411">
        <ele>0.14</ele>
        <time>2016-08-26T15:31:10Z</time>
      </trkpt>
      <trkpt lat="47.51872" lon="-2.94442">
        <ele>-0.82</ele>
        <time>2016-08-26T15:31:27Z</time>
      </trkpt>
      <trkpt lat="47.51874" lon="-2.94463">
        <ele>-0.34</ele>
        <time>2016-08-26T15:31:37Z</time>
      </trkpt>
      <trkpt lat="47.51877" lon="-2.94471">
        <ele>1.58</ele>
        <time>2016-08-26T15:31:42Z</time>
      </trkpt>
      <trkpt lat="47.5188" lon="-2.94507">
        <ele>2.54</ele>
        <time>2016-08-26T15:31:59Z</time>
      </trkpt>
      <trkpt lat="47.51892" lon="-2.94556">
        <ele>1.1</ele>
        <time>2016-08-26T15:32:22Z</time>
      </trkpt>
      <trkpt lat="47.51903" lon="-2.94604">
        <ele>0.62</ele>
        <time>2016-08-26T15:32:46Z</time>
      </trkpt>
      <trkpt lat="47.51913" lon="-2.9465">
        <ele>0.62</ele>
        <time>2016-08-26T15:33:08Z</time>
      </trkpt>
      <trkpt lat="47.51924" lon="-2.94691">
        <ele>0.14</ele>
        <time>2016-08-26T15:33:29Z</time>
      </trkpt>
      <trkpt lat="47.51931" lon="-2.94719">
        <ele>0.14</ele>
        <time>2016-08-26T15:33:45Z</time>
      </trkpt>
      <trkpt lat="47.51935" lon="-2.94742">
        <ele>0.14</ele>
        <time>2016-08-26T15:34:03Z</time>
      </trkpt>
      <trkpt lat="47.51937" lon="-2.9476">
        <ele>0.14</ele>
        <time>2016-08-26T15:34:23Z</time>
      </trkpt>
      <trkpt lat="47.51936" lon="-2.94776">
        <ele>0.14</ele>
        <time>2016-08-26T15:34:42Z</time>
      </trkpt>
      <trkpt lat="47.51937" lon="-2.94791">
        <ele>0.62</ele>
        <time>2016-08-26T15:34:59Z</time>
      </trkpt>
      <trkpt lat="47.51938" lon="-2.94809">
        <ele>0.14</ele>
        <time>2016-08-26T15:35:20Z</time>
      </trkpt>
      <trkpt lat="47.51939" lon="-2.94826">
        <ele>0.62</ele>
        <time>2016-08-26T15:35:41Z</time>
      </trkpt>
      <trkpt lat="47.5194" lon="-2.94844">
        <ele>1.1</ele>
        <time>2016-08-26T15:36:02Z</time>
      </trkpt>
      <trkpt lat="47.51941" lon="-2.94856">
        <ele>1.1</ele>
        <time>2016-08-26T15:36:17Z</time>
      </trkpt>
      <trkpt lat="47.51944" lon="-2.94873">
        <ele>-0.34</ele>
        <time>2016-08-26T15:36:32Z</time>
      </trkpt>
      <trkpt lat="47.51958" lon="-2.94916">
        <ele>-0.82</ele>
        <time>2016-08-26T15:36:49Z</time>
      </trkpt>
      <trkpt lat="47.51969" lon="-2.94959">
        <ele>-0.82</ele>
        <time>2016-08-26T15:37:05Z</time>
      </trkpt>
      <trkpt lat="47.51983" lon="-2.95014">
        <ele>-0.82</ele>
        <time>2016-08-26T15:37:25Z</time>
      </trkpt>
      <trkpt lat="47.52001" lon="-2.95071">
        <ele>-0.82</ele>
        <time>2016-08-26T15:37:44Z</time>
      </trkpt>
      <trkpt lat="47.52019" lon="-2.95134">
        <ele>-0.82</ele>
        <time>2016-08-26T15:38:04Z</time>
      </trkpt>
      <trkpt lat="47.52032" lon="-2.9519">
        <ele>0.62</ele>
        <time>2016-08-26T15:38:21Z</time>
      </trkpt>
      <trkpt lat="47.52047" lon="-2.95261">
        <ele>0.62</ele>
        <time>2016-08-26T15:38:43Z</time>
      </trkpt>
      <trkpt lat="47.52067" lon="-2.95334">
        <ele>-0.82</ele>
        <time>2016-08-26T15:39:07Z</time>
      </trkpt>
      <trkpt lat="47.52085" lon="-2.95401">
        <ele>-0.82</ele>
        <time>2016-08-26T15:39:30Z</time>
      </trkpt>
      <trkpt lat="47.52099" lon="-2.95464">
        <ele>-0.34</ele>
        <time>2016-08-26T15:39:52Z</time>
      </trkpt>
      <trkpt lat="47.52109" lon="-2.95518">
        <ele>0.14</ele>
        <time>2016-08-26T15:40:12Z</time>
      </trkpt>
      <trkpt lat="47.52125" lon="-2.95579">
        <ele>1.1</ele>
        <time>2016-08-26T15:40:37Z</time>
      </trkpt>
      <trkpt lat="47.52146" lon="-2.95652">
        <ele>-0.34</ele>
        <time>2016-08-26T15:41:07Z</time>
      </trkpt>
      <trkpt lat="47.52168" lon="-2.95725">
        <ele>-0.34</ele>
        <time>2016-08-26T15:41:38Z</time>
      </trkpt>
      <trkpt lat="47.52183" lon="-2.95784">
        <ele>-0.82</ele>
        <time>2016-08-26T15:42:02Z</time>
      </trkpt>
      <trkpt lat="47.52189" lon="-2.95819">
        <ele>-0.82</ele>
        <time>2016-08-26T15:42:16Z</time>
      </trkpt>
      <trkpt lat="47.52198" lon="-2.95865">
        <ele>-1.3</ele>
        <time>2016-08-26T15:42:34Z</time>
      </trkpt>
      <trkpt lat="47.52208" lon="-2.9591">
        <ele>-2.27</ele>
        <time>2016-08-26T15:42:52Z</time>
      </trkpt>
      <trkpt lat="47.5223" lon="-2.95954">
        <ele>-1.79</ele>
        <time>2016-08-26T15:43:09Z</time>
      </trkpt>
      <trkpt lat="47.52264" lon="-2.96002">
        <ele>-1.79</ele>
        <time>2016-08-26T15:43:29Z</time>
      </trkpt>
      <trkpt lat="47.52285" lon="-2.9602">
        <ele>-0.82</ele>
        <time>2016-08-26T15:43:38Z</time>
      </trkpt>
      <trkpt lat="47.52328" lon="-2.96061">
        <ele>0.62</ele>
        <time>2016-08-26T15:43:57Z</time>
      </trkpt>
      <trkpt lat="47.52356" lon="-2.96105">
        <ele>1.1</ele>
        <time>2016-08-26T15:44:12Z</time>
      </trkpt>
      <trkpt lat="47.52403" lon="-2.96184">
        <ele>0.62</ele>
        <time>2016-08-26T15:44:38Z</time>
      </trkpt>
      <trkpt lat="47.52453" lon="-2.96269">
        <ele>-1.79</ele>
        <time>2016-08-26T15:45:05Z</time>
      </trkpt>
      <trkpt lat="47.525" lon="-2.96366">
        <ele>-3.23</ele>
        <time>2016-08-26T15:45:35Z</time>
      </trkpt>
      <trkpt lat="47.5254" lon="-2.96463">
        <ele>-2.27</ele>
        <time>2016-08-26T15:46:04Z</time>
      </trkpt>
      <trkpt lat="47.5258" lon="-2.96575">
        <ele>-3.23</ele>
        <time>2016-08-26T15:46:38Z</time>
      </trkpt>
      <trkpt lat="47.52616" lon="-2.96666">
        <ele>-4.19</ele>
        <time>2016-08-26T15:47:06Z</time>
      </trkpt>
      <trkpt lat="47.52671" lon="-2.96747">
        <ele>-1.79</ele>
        <time>2016-08-26T15:47:34Z</time>
      </trkpt>
      <trkpt lat="47.52727" lon="-2.968">
        <ele>0.14</ele>
        <time>2016-08-26T15:48:00Z</time>
      </trkpt>
      <trkpt lat="47.52764" lon="-2.96842">
        <ele>-0.82</ele>
        <time>2016-08-26T15:48:19Z</time>
      </trkpt>
      <trkpt lat="47.52797" lon="-2.96883">
        <ele>-0.34</ele>
        <time>2016-08-26T15:48:36Z</time>
      </trkpt>
      <trkpt lat="47.52835" lon="-2.96926">
        <ele>0.14</ele>
        <time>2016-08-26T15:48:55Z</time>
      </trkpt>
      <trkpt lat="47.52881" lon="-2.9699">
        <ele>-3.71</ele>
        <time>2016-08-26T15:49:19Z</time>
      </trkpt>
      <trkpt lat="47.52929" lon="-2.97066">
        <ele>-5.63</ele>
        <time>2016-08-26T15:49:50Z</time>
      </trkpt>
      <trkpt lat="47.52978" lon="-2.9714">
        <ele>-5.63</ele>
        <time>2016-08-26T15:50:20Z</time>
      </trkpt>
      <trkpt lat="47.52999" lon="-2.97177">
        <ele>-2.27</ele>
        <time>2016-08-26T15:50:35Z</time>
      </trkpt>
      <trkpt lat="47.5303" lon="-2.97226">
        <ele>-0.82</ele>
        <time>2016-08-26T15:50:54Z</time>
      </trkpt>
      <trkpt lat="47.53063" lon="-2.9728">
        <ele>0.62</ele>
        <time>2016-08-26T15:51:15Z</time>
      </trkpt>
      <trkpt lat="47.53089" lon="-2.97331">
        <ele>1.1</ele>
        <time>2016-08-26T15:51:35Z</time>
      </trkpt>
      <trkpt lat="47.53117" lon="-2.97373">
        <ele>2.06</ele>
        <time>2016-08-26T15:51:53Z</time>
      </trkpt>
      <trkpt lat="47.53148" lon="-2.97418">
        <ele>1.1</ele>
        <time>2016-08-26T15:52:12Z</time>
      </trkpt>
      <trkpt lat="47.53195" lon="-2.97483">
        <ele>1.1</ele>
        <time>2016-08-26T15:52:39Z</time>
      </trkpt>
      <trkpt lat="47.53231" lon="-2.97529">
        <ele>0.62</ele>
        <time>2016-08-26T15:52:59Z</time>
      </trkpt>
      <trkpt lat="47.53265" lon="-2.97574">
        <ele>1.58</ele>
        <time>2016-08-26T15:53:18Z</time>
      </trkpt>
      <trkpt lat="47.53297" lon="-2.97619">
        <ele>1.1</ele>
        <time>2016-08-26T15:53:37Z</time>
      </trkpt>
      <trkpt lat="47.53342" lon="-2.97672">
        <ele>0.62</ele>
        <time>2016-08-26T15:54:02Z</time>
      </trkpt>
      <trkpt lat="47.5338" lon="-2.9771">
        <ele>-0.34</ele>
        <time>2016-08-26T15:54:22Z</time>
      </trkpt>
      <trkpt lat="47.5342" lon="-2.97748">
        <ele>0.14</ele>
        <time>2016-08-26T15:54:42Z</time>
      </trkpt>
      <trkpt lat="47.53458" lon="-2.97801">
        <ele>0.62</ele>
        <time>2016-08-26T15:55:04Z</time>
      </trkpt>
      <trkpt lat="47.53492" lon="-2.97856">
        <ele>0.14</ele>
        <time>2016-08-26T15:55:26Z</time>
      </trkpt>
      <trkpt lat="47.53522" lon="-2.97912">
        <ele>1.58</ele>
        <time>2016-08-26T15:55:48Z</time>
      </trkpt>
      <trkpt lat="47.53529" lon="-2.97923">
        <ele>1.1</ele>
        <time>2016-08-26T15:55:53Z</time>
      </trkpt>
      <trkpt lat="47.53557" lon="-2.97958">
        <ele>1.1</ele>
        <time>2016-08-26T15:56:09Z</time>
      </trkpt>
      <trkpt lat="47.5359" lon="-2.98006">
        <ele>1.58</ele>
        <time>2016-08-26T15:56:29Z</time>
      </trkpt>
      <trkpt lat="47.53623" lon="-2.98059">
        <ele>2.06</ele>
        <time>2016-08-26T15:56:51Z</time>
      </trkpt>
      <trkpt lat="47.53643" lon="-2.98092">
        <ele>0.62</ele>
        <time>2016-08-26T15:57:05Z</time>
      </trkpt>
      <trkpt lat="47.53674" lon="-2.98146">
        <ele>1.1</ele>
        <time>2016-08-26T15:57:28Z</time>
      </trkpt>
      <trkpt lat="47.53701" lon="-2.98197">
        <ele>0.62</ele>
        <time>2016-08-26T15:57:50Z</time>
      </trkpt>
      <trkpt lat="47.5373" lon="-2.98245">
        <ele>1.1</ele>
        <time>2016-08-26T15:58:11Z</time>
      </trkpt>
      <trkpt lat="47.53759" lon="-2.98285">
        <ele>0.62</ele>
        <time>2016-08-26T15:58:30Z</time>
      </trkpt>
      <trkpt lat="47.53786" lon="-2.98333">
        <ele>0.62</ele>
        <time>2016-08-26T15:58:50Z</time>
      </trkpt>
      <trkpt lat="47.53814" lon="-2.98391">
        <ele>1.1</ele>
        <time>2016-08-26T15:59:13Z</time>
      </trkpt>
      <trkpt lat="47.53832" lon="-2.98425">
        <ele>1.1</ele>
        <time>2016-08-26T15:59:27Z</time>
      </trkpt>
      <trkpt lat="47.53861" lon="-2.98483">
        <ele>2.06</ele>
        <time>2016-08-26T15:59:50Z</time>
      </trkpt>
      <trkpt lat="47.53893" lon="-2.98535">
        <ele>2.06</ele>
        <time>2016-08-26T16:00:13Z</time>
      </trkpt>
      <trkpt lat="47.53922" lon="-2.98578">
        <ele>1.1</ele>
        <time>2016-08-26T16:00:33Z</time>
      </trkpt>
      <trkpt lat="47.53949" lon="-2.98623">
        <ele>0.62</ele>
        <time>2016-08-26T16:00:55Z</time>
      </trkpt>
      <trkpt lat="47.53978" lon="-2.98668">
        <ele>1.1</ele>
        <time>2016-08-26T16:01:18Z</time>
      </trkpt>
      <trkpt lat="47.54011" lon="-2.98718">
        <ele>1.1</ele>
        <time>2016-08-26T16:01:41Z</time>
      </trkpt>
      <trkpt lat="47.54042" lon="-2.98761">
        <ele>1.58</ele>
        <time>2016-08-26T16:02:01Z</time>
      </trkpt>
      <trkpt lat="47.54078" lon="-2.98805">
        <ele>1.1</ele>
        <time>2016-08-26T16:02:22Z</time>
      </trkpt>
      <trkpt lat="47.54104" lon="-2.98844">
        <ele>0.62</ele>
        <time>2016-08-26T16:02:40Z</time>
      </trkpt>
      <trkpt lat="47.54131" lon="-2.98884">
        <ele>0.62</ele>
        <time>2016-08-26T16:03:00Z</time>
      </trkpt>
      <trkpt lat="47.54157" lon="-2.98921">
        <ele>1.1</ele>
        <time>2016-08-26T16:03:19Z</time>
      </trkpt>
      <trkpt lat="47.54188" lon="-2.98963">
        <ele>1.1</ele>
        <time>2016-08-26T16:03:41Z</time>
      </trkpt>
      <trkpt lat="47.54223" lon="-2.99">
        <ele>0.14</ele>
        <time>2016-08-26T16:04:03Z</time>
      </trkpt>
      <trkpt lat="47.54256" lon="-2.99032">
        <ele>0.62</ele>
        <time>2016-08-26T16:04:22Z</time>
      </trkpt>
      <trkpt lat="47.54286" lon="-2.99072">
        <ele>0.14</ele>
        <time>2016-08-26T16:04:41Z</time>
      </trkpt>
      <trkpt lat="47.54316" lon="-2.99111">
        <ele>-0.34</ele>
        <time>2016-08-26T16:05:01Z</time>
      </trkpt>
      <trkpt lat="47.54347" lon="-2.99153">
        <ele>-0.82</ele>
        <time>2016-08-26T16:05:22Z</time>
      </trkpt>
      <trkpt lat="47.54371" lon="-2.99186">
        <ele>-0.82</ele>
        <time>2016-08-26T16:05:39Z</time>
      </trkpt>
      <trkpt lat="47.54397" lon="-2.99225">
        <ele>-0.82</ele>
        <time>2016-08-26T16:05:58Z</time>
      </trkpt>
      <trkpt lat="47.54426" lon="-2.99271">
        <ele>-0.34</ele>
        <time>2016-08-26T16:06:20Z</time>
      </trkpt>
      <trkpt lat="47.54452" lon="-2.99311">
        <ele>0.14</ele>
        <time>2016-08-26T16:06:40Z</time>
      </trkpt>
      <trkpt lat="47.54476" lon="-2.99347">
        <ele>-0.34</ele>
        <time>2016-08-26T16:06:58Z</time>
      </trkpt>
      <trkpt lat="47.54504" lon="-2.99388">
        <ele>-0.82</ele>
        <time>2016-08-26T16:07:18Z</time>
      </trkpt>
      <trkpt lat="47.54541" lon="-2.99428">
        <ele>0.14</ele>
        <time>2016-08-26T16:07:40Z</time>
      </trkpt>
      <trkpt lat="47.54577" lon="-2.9947">
        <ele>-0.34</ele>
        <time>2016-08-26T16:08:01Z</time>
      </trkpt>
      <trkpt lat="47.54613" lon="-2.99508">
        <ele>-0.34</ele>
        <time>2016-08-26T16:08:22Z</time>
      </trkpt>
      <trkpt lat="47.54651" lon="-2.99541">
        <ele>0.14</ele>
        <time>2016-08-26T16:08:42Z</time>
      </trkpt>
      <trkpt lat="47.54687" lon="-2.99577">
        <ele>-0.34</ele>
        <time>2016-08-26T16:09:03Z</time>
      </trkpt>
      <trkpt lat="47.54715" lon="-2.9961">
        <ele>-0.34</ele>
        <time>2016-08-26T16:09:22Z</time>
      </trkpt>
      <trkpt lat="47.54751" lon="-2.99644">
        <ele>0.62</ele>
        <time>2016-08-26T16:09:44Z</time>
      </trkpt>
      <trkpt lat="47.54785" lon="-2.99677">
        <ele>-0.34</ele>
        <time>2016-08-26T16:10:05Z</time>
      </trkpt>
      <trkpt lat="47.54827" lon="-2.99712">
        <ele>-0.82</ele>
        <time>2016-08-26T16:10:26Z</time>
      </trkpt>
      <trkpt lat="47.54866" lon="-2.99744">
        <ele>0.14</ele>
        <time>2016-08-26T16:10:45Z</time>
      </trkpt>
      <trkpt lat="47.54892" lon="-2.99763">
        <ele>0.62</ele>
        <time>2016-08-26T16:10:57Z</time>
      </trkpt>
      <trkpt lat="47.54931" lon="-2.99799">
        <ele>-0.34</ele>
        <time>2016-08-26T16:11:19Z</time>
      </trkpt>
      <trkpt lat="47.54957" lon="-2.99823">
        <ele>-0.34</ele>
        <time>2016-08-26T16:11:36Z</time>
      </trkpt>
      <trkpt lat="47.54983" lon="-2.99848">
        <ele>-0.34</ele>
        <time>2016-08-26T16:11:53Z</time>
      </trkpt>
      <trkpt lat="47.55007" lon="-2.99869">
        <ele>0.14</ele>
        <time>2016-08-26T16:12:07Z</time>
      </trkpt>
      <trkpt lat="47.55014" lon="-2.99875">
        <ele>-0.34</ele>
        <time>2016-08-26T16:12:11Z</time>
      </trkpt>
      <trkpt lat="47.5505" lon="-2.999">
        <ele>-0.34</ele>
        <time>2016-08-26T16:12:29Z</time>
      </trkpt>
      <trkpt lat="47.55097" lon="-2.9993">
        <ele>0.14</ele>
        <time>2016-08-26T16:12:52Z</time>
      </trkpt>
      <trkpt lat="47.55149" lon="-2.99964">
        <ele>-0.34</ele>
        <time>2016-08-26T16:13:16Z</time>
      </trkpt>
      <trkpt lat="47.55199" lon="-3.00001">
        <ele>-1.3</ele>
        <time>2016-08-26T16:13:40Z</time>
      </trkpt>
      <trkpt lat="47.55237" lon="-3.00027">
        <ele>-0.82</ele>
        <time>2016-08-26T16:13:59Z</time>
      </trkpt>
      <trkpt lat="47.55283" lon="-3.00057">
        <ele>0.14</ele>
        <time>2016-08-26T16:14:21Z</time>
      </trkpt>
      <trkpt lat="47.55333" lon="-3.00093">
        <ele>0.62</ele>
        <time>2016-08-26T16:14:45Z</time>
      </trkpt>
      <trkpt lat="47.55368" lon="-3.00124">
        <ele>0.62</ele>
        <time>2016-08-26T16:15:04Z</time>
      </trkpt>
      <trkpt lat="47.55413" lon="-3.0016">
        <ele>1.1</ele>
        <time>2016-08-26T16:15:28Z</time>
      </trkpt>
      <trkpt lat="47.55457" lon="-3.00189">
        <ele>1.58</ele>
        <time>2016-08-26T16:15:49Z</time>
      </trkpt>
      <trkpt lat="47.55505" lon="-3.00221">
        <ele>0.14</ele>
        <time>2016-08-26T16:16:12Z</time>
      </trkpt>
      <trkpt lat="47.55552" lon="-3.00252">
        <ele>-0.82</ele>
        <time>2016-08-26T16:16:34Z</time>
      </trkpt>
      <trkpt lat="47.55609" lon="-3.00289">
        <ele>-0.34</ele>
        <time>2016-08-26T16:17:00Z</time>
      </trkpt>
      <trkpt lat="47.55655" lon="-3.00321">
        <ele>0.14</ele>
        <time>2016-08-26T16:17:23Z</time>
      </trkpt>
      <trkpt lat="47.55691" lon="-3.00347">
        <ele>0.14</ele>
        <time>2016-08-26T16:17:43Z</time>
      </trkpt>
      <trkpt lat="47.55725" lon="-3.00373">
        <ele>-0.82</ele>
        <time>2016-08-26T16:18:05Z</time>
      </trkpt>
      <trkpt lat="47.55755" lon="-3.004">
        <ele>-0.82</ele>
        <time>2016-08-26T16:18:26Z</time>
      </trkpt>
      <trkpt lat="47.55794" lon="-3.00423">
        <ele>-0.34</ele>
        <time>2016-08-26T16:18:48Z</time>
      </trkpt>
      <trkpt lat="47.55836" lon="-3.00447">
        <ele>-0.82</ele>
        <time>2016-08-26T16:19:11Z</time>
      </trkpt>
      <trkpt lat="47.55877" lon="-3.00463">
        <ele>-0.34</ele>
        <time>2016-08-26T16:19:34Z</time>
      </trkpt>
      <trkpt lat="47.55909" lon="-3.00476">
        <ele>-0.34</ele>
        <time>2016-08-26T16:19:54Z</time>
      </trkpt>
      <trkpt lat="47.55944" lon="-3.00487">
        <ele>-0.34</ele>
        <time>2016-08-26T16:20:18Z</time>
      </trkpt>
      <trkpt lat="47.55964" lon="-3.00496">
        <ele>-1.79</ele>
        <time>2016-08-26T16:20:33Z</time>
      </trkpt>
      <trkpt lat="47.5601" lon="-3.00513">
        <ele>-5.63</ele>
        <time>2016-08-26T16:21:03Z</time>
      </trkpt>
      <trkpt lat="47.56056" lon="-3.0053">
        <ele>-4.67</ele>
        <time>2016-08-26T16:21:30Z</time>
      </trkpt>
      <trkpt lat="47.5609" lon="-3.00553">
        <ele>-0.34</ele>
        <time>2016-08-26T16:21:55Z</time>
      </trkpt>
      <trkpt lat="47.56124" lon="-3.00569">
        <ele>-0.34</ele>
        <time>2016-08-26T16:22:15Z</time>
      </trkpt>
      <trkpt lat="47.56166" lon="-3.00592">
        <ele>0.14</ele>
        <time>2016-08-26T16:22:43Z</time>
      </trkpt>
      <trkpt lat="47.56207" lon="-3.00608">
        <ele>0.62</ele>
        <time>2016-08-26T16:23:07Z</time>
      </trkpt>
      <trkpt lat="47.56246" lon="-3.00625">
        <ele>0.14</ele>
        <time>2016-08-26T16:23:31Z</time>
      </trkpt>
      <trkpt lat="47.56279" lon="-3.0064">
        <ele>0.62</ele>
        <time>2016-08-26T16:23:49Z</time>
      </trkpt>
      <trkpt lat="47.56321" lon="-3.00652">
        <ele>-0.82</ele>
        <time>2016-08-26T16:24:11Z</time>
      </trkpt>
      <trkpt lat="47.56358" lon="-3.00673">
        <ele>0.14</ele>
        <time>2016-08-26T16:24:33Z</time>
      </trkpt>
      <trkpt lat="47.56386" lon="-3.00669">
        <ele>1.1</ele>
        <time>2016-08-26T16:24:46Z</time>
      </trkpt>
      <trkpt lat="47.56411" lon="-3.00674">
        <ele>1.1</ele>
        <time>2016-08-26T16:25:01Z</time>
      </trkpt>
      <trkpt lat="47.56444" lon="-3.00688">
        <ele>1.1</ele>
        <time>2016-08-26T16:25:20Z</time>
      </trkpt>
      <trkpt lat="47.5647" lon="-3.00706">
        <ele>1.1</ele>
        <time>2016-08-26T16:25:38Z</time>
      </trkpt>
      <trkpt lat="47.56497" lon="-3.00736">
        <ele>2.06</ele>
        <time>2016-08-26T16:26:01Z</time>
      </trkpt>
      <trkpt lat="47.56532" lon="-3.00767">
        <ele>1.58</ele>
        <time>2016-08-26T16:26:25Z</time>
      </trkpt>
      <trkpt lat="47.56556" lon="-3.00787">
        <ele>1.1</ele>
        <time>2016-08-26T16:26:45Z</time>
      </trkpt>
      <trkpt lat="47.56569" lon="-3.00797">
        <ele>0.62</ele>
        <time>2016-08-26T16:26:58Z</time>
      </trkpt>
      <trkpt lat="47.56585" lon="-3.00822">
        <ele>0.62</ele>
        <time>2016-08-26T16:27:16Z</time>
      </trkpt>
      <trkpt lat="47.56615" lon="-3.0085">
        <ele>0.14</ele>
        <time>2016-08-26T16:27:37Z</time>
      </trkpt>
      <trkpt lat="47.56639" lon="-3.00874">
        <ele>0.62</ele>
        <time>2016-08-26T16:27:55Z</time>
      </trkpt>
      <trkpt lat="47.56666" lon="-3.00898">
        <ele>0.62</ele>
        <time>2016-08-26T16:28:13Z</time>
      </trkpt>
      <trkpt lat="47.56691" lon="-3.00917">
        <ele>0.14</ele>
        <time>2016-08-26T16:28:30Z</time>
      </trkpt>
      <trkpt lat="47.56719" lon="-3.00942">
        <ele>0.14</ele>
        <time>2016-08-26T16:28:52Z</time>
      </trkpt>
      <trkpt lat="47.56741" lon="-3.00959">
        <ele>-0.34</ele>
        <time>2016-08-26T16:29:12Z</time>
      </trkpt>
      <trkpt lat="47.56762" lon="-3.00978">
        <ele>0.62</ele>
        <time>2016-08-26T16:29:33Z</time>
      </trkpt>
      <trkpt lat="47.56788" lon="-3.00999">
        <ele>1.58</ele>
        <time>2016-08-26T16:29:54Z</time>
      </trkpt>
      <trkpt lat="47.56819" lon="-3.01022">
        <ele>-0.34</ele>
        <time>2016-08-26T16:30:20Z</time>
      </trkpt>
      <trkpt lat="47.5684" lon="-3.01045">
        <ele>0.14</ele>
        <time>2016-08-26T16:30:41Z</time>
      </trkpt>
      <trkpt lat="47.56866" lon="-3.01067">
        <ele>1.1</ele>
        <time>2016-08-26T16:31:03Z</time>
      </trkpt>
      <trkpt lat="47.56887" lon="-3.01086">
        <ele>0.62</ele>
        <time>2016-08-26T16:31:22Z</time>
      </trkpt>
      <trkpt lat="47.56907" lon="-3.01093">
        <ele>1.1</ele>
        <time>2016-08-26T16:31:42Z</time>
      </trkpt>
      <trkpt lat="47.56919" lon="-3.01112">
        <ele>0.62</ele>
        <time>2016-08-26T16:32:09Z</time>
      </trkpt>
      <trkpt lat="47.56927" lon="-3.01128">
        <ele>0.62</ele>
        <time>2016-08-26T16:32:29Z</time>
      </trkpt>
      <trkpt lat="47.56934" lon="-3.01142">
        <ele>1.1</ele>
        <time>2016-08-26T16:32:43Z</time>
      </trkpt>
      <trkpt lat="47.56953" lon="-3.01164">
        <ele>1.58</ele>
        <time>2016-08-26T16:33:06Z</time>
      </trkpt>
      <trkpt lat="47.56981" lon="-3.01186">
        <ele>1.1</ele>
        <time>2016-08-26T16:33:27Z</time>
      </trkpt>
      <trkpt lat="47.57022" lon="-3.01197">
        <ele>0.14</ele>
        <time>2016-08-26T16:33:49Z</time>
      </trkpt>
      <trkpt lat="47.57057" lon="-3.01207">
        <ele>-0.82</ele>
        <time>2016-08-26T16:34:14Z</time>
      </trkpt>
      <trkpt lat="47.57089" lon="-3.01228">
        <ele>0.62</ele>
        <time>2016-08-26T16:34:41Z</time>
      </trkpt>
      <trkpt lat="47.57128" lon="-3.01245">
        <ele>-0.34</ele>
        <time>2016-08-26T16:35:04Z</time>
      </trkpt>
      <trkpt lat="47.57164" lon="-3.01266">
        <ele>-0.34</ele>
        <time>2016-08-26T16:35:27Z</time>
      </trkpt>
      <trkpt lat="47.57195" lon="-3.01275">
        <ele>0.14</ele>
        <time>2016-08-26T16:35:45Z</time>
      </trkpt>
      <trkpt lat="47.57228" lon="-3.01278">
        <ele>0.62</ele>
        <time>2016-08-26T16:36:02Z</time>
      </trkpt>
      <trkpt lat="47.57253" lon="-3.01282">
        <ele>1.58</ele>
        <time>2016-08-26T16:36:17Z</time>
      </trkpt>
      <trkpt lat="47.57291" lon="-3.01287">
        <ele>1.58</ele>
        <time>2016-08-26T16:36:42Z</time>
      </trkpt>
      <trkpt lat="47.57312" lon="-3.01299">
        <ele>2.54</ele>
        <time>2016-08-26T16:37:02Z</time>
      </trkpt>
      <trkpt lat="47.57337" lon="-3.01324">
        <ele>1.58</ele>
        <time>2016-08-26T16:37:32Z</time>
      </trkpt>
      <trkpt lat="47.57358" lon="-3.01345">
        <ele>1.58</ele>
        <time>2016-08-26T16:37:56Z</time>
      </trkpt>
      <trkpt lat="47.5738" lon="-3.01363">
        <ele>1.58</ele>
        <time>2016-08-26T16:38:17Z</time>
      </trkpt>
      <trkpt lat="47.57396" lon="-3.01369">
        <ele>1.58</ele>
        <time>2016-08-26T16:38:37Z</time>
      </trkpt>
      <trkpt lat="47.57408" lon="-3.01377">
        <ele>0.62</ele>
        <time>2016-08-26T16:38:55Z</time>
      </trkpt>
      <trkpt lat="47.57416" lon="-3.01375">
        <ele>1.1</ele>
        <time>2016-08-26T16:39:11Z</time>
      </trkpt>
      <trkpt lat="47.57418" lon="-3.0137">
        <ele>1.1</ele>
        <time>2016-08-26T16:39:16Z</time>
      </trkpt>
      <trkpt lat="47.57422" lon="-3.01356">
        <ele>-0.34</ele>
        <time>2016-08-26T16:39:30Z</time>
      </trkpt>
      <trkpt lat="47.57424" lon="-3.01351">
        <ele>0.62</ele>
        <time>2016-08-26T16:39:42Z</time>
      </trkpt>
      <trkpt lat="47.57432" lon="-3.01347">
        <ele>0.62</ele>
        <time>2016-08-26T16:39:55Z</time>
      </trkpt>
      <trkpt lat="47.57441" lon="-3.01345">
        <ele>0.62</ele>
        <time>2016-08-26T16:40:05Z</time>
      </trkpt>
      <trkpt lat="47.5745" lon="-3.01341">
        <ele>0.14</ele>
        <time>2016-08-26T16:40:17Z</time>
      </trkpt>
      <trkpt lat="47.57459" lon="-3.01321">
        <ele>0.14</ele>
        <time>2016-08-26T16:40:33Z</time>
      </trkpt>
      <trkpt lat="47.5748" lon="-3.01288">
        <ele>0.14</ele>
        <time>2016-08-26T16:40:51Z</time>
      </trkpt>
      <trkpt lat="47.57494" lon="-3.01286">
        <ele>-0.34</ele>
        <time>2016-08-26T16:40:59Z</time>
      </trkpt>
      <trkpt lat="47.5753" lon="-3.013">
        <ele>1.1</ele>
        <time>2016-08-26T16:41:19Z</time>
      </trkpt>
      <trkpt lat="47.57564" lon="-3.01298">
        <ele>1.1</ele>
        <time>2016-08-26T16:41:40Z</time>
      </trkpt>
      <trkpt lat="47.57593" lon="-3.0131">
        <ele>1.1</ele>
        <time>2016-08-26T16:42:00Z</time>
      </trkpt>
      <trkpt lat="47.57626" lon="-3.01325">
        <ele>1.58</ele>
        <time>2016-08-26T16:42:20Z</time>
      </trkpt>
      <trkpt lat="47.5766" lon="-3.01343">
        <ele>1.1</ele>
        <time>2016-08-26T16:42:41Z</time>
      </trkpt>
      <trkpt lat="47.57708" lon="-3.01359">
        <ele>2.06</ele>
        <time>2016-08-26T16:43:07Z</time>
      </trkpt>
      <trkpt lat="47.57752" lon="-3.01371">
        <ele>1.1</ele>
        <time>2016-08-26T16:43:31Z</time>
      </trkpt>
      <trkpt lat="47.57787" lon="-3.01374">
        <ele>0.62</ele>
        <time>2016-08-26T16:43:51Z</time>
      </trkpt>
      <trkpt lat="47.57817" lon="-3.01375">
        <ele>1.58</ele>
        <time>2016-08-26T16:44:10Z</time>
      </trkpt>
      <trkpt lat="47.57846" lon="-3.01379">
        <ele>1.58</ele>
        <time>2016-08-26T16:44:28Z</time>
      </trkpt>
      <trkpt lat="47.57877" lon="-3.01393">
        <ele>2.06</ele>
        <time>2016-08-26T16:44:47Z</time>
      </trkpt>
      <trkpt lat="47.57909" lon="-3.01424">
        <ele>1.1</ele>
        <time>2016-08-26T16:45:10Z</time>
      </trkpt>
      <trkpt lat="47.57945" lon="-3.01455">
        <ele>1.1</ele>
        <time>2016-08-26T16:45:34Z</time>
      </trkpt>
      <trkpt lat="47.57968" lon="-3.01468">
        <ele>0.14</ele>
        <time>2016-08-26T16:45:49Z</time>
      </trkpt>
      <trkpt lat="47.57989" lon="-3.01482">
        <ele>3.5</ele>
        <time>2016-08-26T16:46:04Z</time>
      </trkpt>
      <trkpt lat="47.58016" lon="-3.01499">
        <ele>2.06</ele>
        <time>2016-08-26T16:46:20Z</time>
      </trkpt>
      <trkpt lat="47.58041" lon="-3.01518">
        <ele>0.14</ele>
        <time>2016-08-26T16:46:34Z</time>
      </trkpt>
      <trkpt lat="47.5807" lon="-3.01544">
        <ele>0.62</ele>
        <time>2016-08-26T16:46:51Z</time>
      </trkpt>
      <trkpt lat="47.58118" lon="-3.01594">
        <ele>1.58</ele>
        <time>2016-08-26T16:47:20Z</time>
      </trkpt>
      <trkpt lat="47.58153" lon="-3.01641">
        <ele>1.1</ele>
        <time>2016-08-26T16:47:43Z</time>
      </trkpt>
      <trkpt lat="47.58183" lon="-3.01677">
        <ele>1.1</ele>
        <time>2016-08-26T16:48:03Z</time>
      </trkpt>
      <trkpt lat="47.58214" lon="-3.01715">
        <ele>-0.34</ele>
        <time>2016-08-26T16:48:25Z</time>
      </trkpt>
      <trkpt lat="47.58239" lon="-3.01752">
        <ele>0.62</ele>
        <time>2016-08-26T16:48:48Z</time>
      </trkpt>
      <trkpt lat="47.58255" lon="-3.01781">
        <ele>1.1</ele>
        <time>2016-08-26T16:49:07Z</time>
      </trkpt>
      <trkpt lat="47.58269" lon="-3.01784">
        <ele>0.62</ele>
        <time>2016-08-26T16:49:20Z</time>
      </trkpt>
      <trkpt lat="47.58272" lon="-3.01782">
        <ele>2.06</ele>
        <time>2016-08-26T16:49:23Z</time>
      </trkpt>
      <trkpt lat="47.5828" lon="-3.01768">
        <ele>2.06</ele>
        <time>2016-08-26T16:49:35Z</time>
      </trkpt>
      <trkpt lat="47.58286" lon="-3.01749">
        <ele>1.1</ele>
        <time>2016-08-26T16:49:54Z</time>
      </trkpt>
      <trkpt lat="47.58296" lon="-3.01743">
        <ele>0.62</ele>
        <time>2016-08-26T16:50:10Z</time>
      </trkpt>
      <trkpt lat="47.58298" lon="-3.01745">
        <ele>0.62</ele>
        <time>2016-08-26T16:50:13Z</time>
      </trkpt>
      <trkpt lat="47.58301" lon="-3.01755">
        <ele>0.62</ele>
        <time>2016-08-26T16:50:22Z</time>
      </trkpt>
      <trkpt lat="47.583" lon="-3.01759">
        <ele>1.1</ele>
        <time>2016-08-26T16:50:25Z</time>
      </trkpt>
      <trkpt lat="47.58297" lon="-3.01777">
        <ele>2.54</ele>
        <time>2016-08-26T16:50:38Z</time>
      </trkpt>
      <trkpt lat="47.58299" lon="-3.01807">
        <ele>1.58</ele>
        <time>2016-08-26T16:50:56Z</time>
      </trkpt>
      <trkpt lat="47.58299" lon="-3.01808">
        <ele>1.58</ele>
        <time>2016-08-26T16:50:57Z</time>
      </trkpt>
      <trkpt lat="47.58301" lon="-3.01814">
        <ele>1.58</ele>
        <time>2016-08-26T16:51:01Z</time>
      </trkpt>
      <trkpt lat="47.58306" lon="-3.01845">
        <ele>2.06</ele>
        <time>2016-08-26T16:51:20Z</time>
      </trkpt>
      <trkpt lat="47.58311" lon="-3.01871">
        <ele>1.58</ele>
        <time>2016-08-26T16:51:36Z</time>
      </trkpt>
      <trkpt lat="47.58314" lon="-3.01884">
        <ele>1.1</ele>
        <time>2016-08-26T16:51:44Z</time>
      </trkpt>
      <trkpt lat="47.58322" lon="-3.01923">
        <ele>1.1</ele>
        <time>2016-08-26T16:52:10Z</time>
      </trkpt>
      <trkpt lat="47.58329" lon="-3.01951">
        <ele>1.1</ele>
        <time>2016-08-26T16:52:26Z</time>
      </trkpt>
      <trkpt lat="47.58333" lon="-3.01967">
        <ele>1.58</ele>
        <time>2016-08-26T16:52:35Z</time>
      </trkpt>
      <trkpt lat="47.58339" lon="-3.02">
        <ele>3.5</ele>
        <time>2016-08-26T16:52:57Z</time>
      </trkpt>
      <trkpt lat="47.58343" lon="-3.02032">
        <ele>3.98</ele>
        <time>2016-08-26T16:53:17Z</time>
      </trkpt>
      <trkpt lat="47.58347" lon="-3.02059">
        <ele>-0.34</ele>
        <time>2016-08-26T16:53:33Z</time>
      </trkpt>
      <trkpt lat="47.58357" lon="-3.02087">
        <ele>-0.34</ele>
        <time>2016-08-26T16:53:53Z</time>
      </trkpt>
      <trkpt lat="47.58377" lon="-3.02117">
        <ele>0.14</ele>
        <time>2016-08-26T16:54:20Z</time>
      </trkpt>
      <trkpt lat="47.5839" lon="-3.02141">
        <ele>0.62</ele>
        <time>2016-08-26T16:54:40Z</time>
      </trkpt>
      <trkpt lat="47.58401" lon="-3.02159">
        <ele>2.06</ele>
        <time>2016-08-26T16:54:56Z</time>
      </trkpt>
      <trkpt lat="47.5841" lon="-3.02167">
        <ele>2.06</ele>
        <time>2016-08-26T16:55:06Z</time>
      </trkpt>
      <trkpt lat="47.58425" lon="-3.02181">
        <ele>1.1</ele>
        <time>2016-08-26T16:55:23Z</time>
      </trkpt>
      <trkpt lat="47.58441" lon="-3.022">
        <ele>1.1</ele>
        <time>2016-08-26T16:55:42Z</time>
      </trkpt>
      <trkpt lat="47.58466" lon="-3.02222">
        <ele>1.58</ele>
        <time>2016-08-26T16:56:01Z</time>
      </trkpt>
      <trkpt lat="47.58496" lon="-3.02243">
        <ele>1.58</ele>
        <time>2016-08-26T16:56:21Z</time>
      </trkpt>
      <trkpt lat="47.58524" lon="-3.02267">
        <ele>1.1</ele>
        <time>2016-08-26T16:56:41Z</time>
      </trkpt>
      <trkpt lat="47.5853" lon="-3.02272">
        <ele>1.1</ele>
        <time>2016-08-26T16:56:45Z</time>
      </trkpt>
      <trkpt lat="47.5854" lon="-3.02276">
        <ele>1.58</ele>
        <time>2016-08-26T16:56:51Z</time>
      </trkpt>
      <trkpt lat="47.58543" lon="-3.02278">
        <ele>1.58</ele>
        <time>2016-08-26T16:56:53Z</time>
      </trkpt>
      <trkpt lat="47.58571" lon="-3.02292">
        <ele>1.58</ele>
        <time>2016-08-26T16:57:10Z</time>
      </trkpt>
      <trkpt lat="47.58594" lon="-3.02307">
        <ele>0.62</ele>
        <time>2016-08-26T16:57:25Z</time>
      </trkpt>
      <trkpt lat="47.58624" lon="-3.02327">
        <ele>0.14</ele>
        <time>2016-08-26T16:57:46Z</time>
      </trkpt>
      <trkpt lat="47.58655" lon="-3.02343">
        <ele>1.1</ele>
        <time>2016-08-26T16:58:06Z</time>
      </trkpt>
      <trkpt lat="47.58685" lon="-3.02361">
        <ele>1.58</ele>
        <time>2016-08-26T16:58:26Z</time>
      </trkpt>
      <trkpt lat="47.58716" lon="-3.02378">
        <ele>-0.34</ele>
        <time>2016-08-26T16:58:47Z</time>
      </trkpt>
      <trkpt lat="47.58744" lon="-3.02382">
        <ele>-0.82</ele>
        <time>2016-08-26T16:59:04Z</time>
      </trkpt>
      <trkpt lat="47.58776" lon="-3.02394">
        <ele>1.1</ele>
        <time>2016-08-26T16:59:26Z</time>
      </trkpt>
      <trkpt lat="47.58793" lon="-3.02408">
        <ele>1.58</ele>
        <time>2016-08-26T16:59:41Z</time>
      </trkpt>
      <trkpt lat="47.58798" lon="-3.02412">
        <ele>2.54</ele>
        <time>2016-08-26T16:59:45Z</time>
      </trkpt>
      <trkpt lat="47.58824" lon="-3.02433">
        <ele>3.5</ele>
        <time>2016-08-26T17:00:08Z</time>
      </trkpt>
      <trkpt lat="47.58828" lon="-3.02435">
        <ele>3.02</ele>
        <time>2016-08-26T17:00:12Z</time>
      </trkpt>
      <trkpt lat="47.58847" lon="-3.02446">
        <ele>2.54</ele>
        <time>2016-08-26T17:00:29Z</time>
      </trkpt>
      <trkpt lat="47.58864" lon="-3.02456">
        <ele>2.54</ele>
        <time>2016-08-26T17:00:45Z</time>
      </trkpt>
      <trkpt lat="47.58888" lon="-3.02472">
        <ele>2.06</ele>
        <time>2016-08-26T17:01:08Z</time>
      </trkpt>
      <trkpt lat="47.58905" lon="-3.02486">
        <ele>2.06</ele>
        <time>2016-08-26T17:01:25Z</time>
      </trkpt>
      <trkpt lat="47.58922" lon="-3.02503">
        <ele>1.1</ele>
        <time>2016-08-26T17:01:42Z</time>
      </trkpt>
      <trkpt lat="47.5894" lon="-3.02521">
        <ele>1.58</ele>
        <time>2016-08-26T17:02:01Z</time>
      </trkpt>
      <trkpt lat="47.58949" lon="-3.0253">
        <ele>2.06</ele>
        <time>2016-08-26T17:02:10Z</time>
      </trkpt>
      <trkpt lat="47.58972" lon="-3.02552">
        <ele>3.5</ele>
        <time>2016-08-26T17:02:33Z</time>
      </trkpt>
      <trkpt lat="47.58986" lon="-3.02566">
        <ele>4.46</ele>
        <time>2016-08-26T17:02:48Z</time>
      </trkpt>
      <trkpt lat="47.58999" lon="-3.02575">
        <ele>3.5</ele>
        <time>2016-08-26T17:02:59Z</time>
      </trkpt>
      <trkpt lat="47.59011" lon="-3.0259">
        <ele>3.02</ele>
        <time>2016-08-26T17:03:13Z</time>
      </trkpt>
      <trkpt lat="47.59023" lon="-3.02609">
        <ele>3.02</ele>
        <time>2016-08-26T17:03:32Z</time>
      </trkpt>
      <trkpt lat="47.59035" lon="-3.02619">
        <ele>3.02</ele>
        <time>2016-08-26T17:03:50Z</time>
      </trkpt>
      <trkpt lat="47.59051" lon="-3.02627">
        <ele>2.54</ele>
        <time>2016-08-26T17:04:11Z</time>
      </trkpt>
      <trkpt lat="47.59064" lon="-3.02609">
        <ele>4.46</ele>
        <time>2016-08-26T17:04:36Z</time>
      </trkpt>
      <trkpt lat="47.59074" lon="-3.02583">
        <ele>3.02</ele>
        <time>2016-08-26T17:05:01Z</time>
      </trkpt>
      <trkpt lat="47.59085" lon="-3.02559">
        <ele>3.98</ele>
        <time>2016-08-26T17:05:24Z</time>
      </trkpt>
      <trkpt lat="47.59097" lon="-3.02535">
        <ele>4.46</ele>
        <time>2016-08-26T17:05:47Z</time>
      </trkpt>
      <trkpt lat="47.59102" lon="-3.02527">
        <ele>3.98</ele>
        <time>2016-08-26T17:06:04Z</time>
      </trkpt>
      <trkpt lat="47.59101" lon="-3.0253">
        <ele>3.5</ele>
        <time>2016-08-26T17:06:23Z</time>
      </trkpt>
      <trkpt lat="47.59098" lon="-3.02547">
        <ele>3.02</ele>
        <time>2016-08-26T17:06:36Z</time>
      </trkpt>
      <trkpt lat="47.59092" lon="-3.02563">
        <ele>3.5</ele>
        <time>2016-08-26T17:06:49Z</time>
      </trkpt>
      <trkpt lat="47.59093" lon="-3.0256">
        <ele>3.5</ele>
        <time>2016-08-26T17:07:04Z</time>
      </trkpt>
      <trkpt lat="47.59097" lon="-3.02541">
        <ele>3.5</ele>
        <time>2016-08-26T17:07:24Z</time>
      </trkpt>
      <trkpt lat="47.59106" lon="-3.02539">
        <ele>5.91</ele>
        <time>2016-08-26T17:07:41Z</time>
      </trkpt>
      <trkpt lat="47.5911" lon="-3.02543">
        <ele>6.39</ele>
        <time>2016-08-26T17:08:00Z</time>
      </trkpt>
      <trkpt lat="47.59115" lon="-3.02538">
        <ele>4.94</ele>
        <time>2016-08-26T17:08:11Z</time>
      </trkpt>
      <trkpt lat="47.59116" lon="-3.0254">
        <ele>4.94</ele>
        <time>2016-08-26T17:08:13Z</time>
      </trkpt>
      <trkpt lat="47.59115" lon="-3.02538">
        <ele>4.94</ele>
        <time>2016-08-26T17:08:23Z</time>
      </trkpt>
      <trkpt lat="47.59115" lon="-3.02539">
        <ele>4.94</ele>
        <time>2016-08-26T17:08:25Z</time>
      </trkpt>
      <trkpt lat="47.59118" lon="-3.02543">
        <ele>3.02</ele>
        <time>2016-08-26T17:08:35Z</time>
      </trkpt>
      <trkpt lat="47.59117" lon="-3.02544">
        <ele>2.54</ele>
        <time>2016-08-26T17:08:46Z</time>
      </trkpt>
      <trkpt lat="47.59115" lon="-3.02543">
        <ele>3.02</ele>
        <time>2016-08-26T17:08:57Z</time>
      </trkpt>
      <trkpt lat="47.59114" lon="-3.02543">
        <ele>3.5</ele>
        <time>2016-08-26T17:09:01Z</time>
      </trkpt>
    </trkseg>
  </trk>
</gpx>